<?xml version="1.0" encoding="UTF-8" standalone="no" ?>
<gpx xmlns="http://www.topografix.com/GPX/1/1" xmlns:xsi="http://www.w3.org/2001/XMLSchema-instance" xsi:schemaLocation="http://www.topografix.com/GPX/1/1 http://www.topografix.com/GPX/1/1/gpx.xsd" version="1.1" creator="VisuGPX - https://www.visugpx.com">
  <metadata>
    <name>la Bonida 1620m 2529m</name>
    <desc><![CDATA[description à venir
[url][/url]
[img][/img]]]></desc>
  </metadata>
  <trk>
    <name><![CDATA[la Bonida 1620m 2529m]]></name>
    <trkseg>
      <trkpt lat="42.90771" lon="0.11676">
        <ele>1645</ele>
      </trkpt>
      <trkpt lat="42.90819" lon="0.11732">
        <ele>1662</ele>
      </trkpt>
      <trkpt lat="42.90828" lon="0.11725">
        <ele>1662</ele>
      </trkpt>
      <trkpt lat="42.90888" lon="0.11699">
        <ele>1676</ele>
      </trkpt>
      <trkpt lat="42.90977" lon="0.11766">
        <ele>1707</ele>
      </trkpt>
      <trkpt lat="42.91089" lon="0.11942">
        <ele>1749</ele>
      </trkpt>
      <trkpt lat="42.9115" lon="0.12077">
        <ele>1775</ele>
      </trkpt>
      <trkpt lat="42.91209" lon="0.1234">
        <ele>1901</ele>
      </trkpt>
      <trkpt lat="42.9121" lon="0.12353">
        <ele>1901</ele>
      </trkpt>
      <trkpt lat="42.91245" lon="0.12657">
        <ele>1938</ele>
      </trkpt>
      <trkpt lat="42.91248" lon="0.12666">
        <ele>1941</ele>
      </trkpt>
      <trkpt lat="42.91351" lon="0.12888">
        <ele>2002</ele>
      </trkpt>
      <trkpt lat="42.91453" lon="0.13028">
        <ele>2013</ele>
      </trkpt>
      <trkpt lat="42.91617" lon="0.13159">
        <ele>2057</ele>
      </trkpt>
      <trkpt lat="42.91914" lon="0.13163">
        <ele>2158</ele>
      </trkpt>
      <trkpt lat="42.91918" lon="0.13159">
        <ele>2167</ele>
        <time>2010-12-18T15:02:50Z</time>
      </trkpt>
      <trkpt lat="42.91919" lon="0.13156">
        <ele>2166</ele>
        <time>2010-12-18T15:02:53Z</time>
      </trkpt>
      <trkpt lat="42.91922" lon="0.13146">
        <ele>2162</ele>
        <time>2010-12-18T15:03:00Z</time>
      </trkpt>
      <trkpt lat="42.91928" lon="0.13142">
        <ele>2157</ele>
        <time>2010-12-18T15:03:17Z</time>
      </trkpt>
      <trkpt lat="42.91935" lon="0.13134">
        <ele>2156</ele>
        <time>2010-12-18T15:03:30Z</time>
      </trkpt>
      <trkpt lat="42.91945" lon="0.13122">
        <ele>2157</ele>
        <time>2010-12-18T15:03:47Z</time>
      </trkpt>
      <trkpt lat="42.91952" lon="0.13105">
        <ele>2158</ele>
        <time>2010-12-18T15:04:07Z</time>
      </trkpt>
      <trkpt lat="42.91964" lon="0.13083">
        <ele>2160</ele>
        <time>2010-12-18T15:04:28Z</time>
      </trkpt>
      <trkpt lat="42.91976" lon="0.13064">
        <ele>2163</ele>
        <time>2010-12-18T15:04:49Z</time>
      </trkpt>
      <trkpt lat="42.91983" lon="0.13056">
        <ele>2165</ele>
        <time>2010-12-18T15:05:08Z</time>
      </trkpt>
      <trkpt lat="42.91991" lon="0.13051">
        <ele>2168</ele>
        <time>2010-12-18T15:05:24Z</time>
      </trkpt>
      <trkpt lat="42.92" lon="0.13049">
        <ele>2170</ele>
        <time>2010-12-18T15:05:42Z</time>
      </trkpt>
      <trkpt lat="42.9201" lon="0.13049">
        <ele>2172</ele>
        <time>2010-12-18T15:05:57Z</time>
      </trkpt>
      <trkpt lat="42.92012" lon="0.1304">
        <ele>2175</ele>
        <time>2010-12-18T15:06:14Z</time>
      </trkpt>
      <trkpt lat="42.9201" lon="0.13025">
        <ele>2178</ele>
        <time>2010-12-18T15:06:33Z</time>
      </trkpt>
      <trkpt lat="42.92006" lon="0.13012">
        <ele>2181</ele>
        <time>2010-12-18T15:06:52Z</time>
      </trkpt>
      <trkpt lat="42.92" lon="0.12995">
        <ele>2184</ele>
        <time>2010-12-18T15:07:14Z</time>
      </trkpt>
      <trkpt lat="42.91996" lon="0.12984">
        <ele>2187</ele>
        <time>2010-12-18T15:07:32Z</time>
      </trkpt>
      <trkpt lat="42.91991" lon="0.1297">
        <ele>2191</ele>
        <time>2010-12-18T15:07:53Z</time>
      </trkpt>
      <trkpt lat="42.91989" lon="0.12964">
        <ele>2191</ele>
        <time>2010-12-18T15:08:01Z</time>
      </trkpt>
      <trkpt lat="42.91997" lon="0.12964">
        <ele>2194</ele>
        <time>2010-12-18T15:08:18Z</time>
      </trkpt>
      <trkpt lat="42.92006" lon="0.12965">
        <ele>2196</ele>
        <time>2010-12-18T15:08:35Z</time>
      </trkpt>
      <trkpt lat="42.92017" lon="0.12963">
        <ele>2198</ele>
        <time>2010-12-18T15:08:54Z</time>
      </trkpt>
      <trkpt lat="42.92029" lon="0.1296">
        <ele>2201</ele>
        <time>2010-12-18T15:09:14Z</time>
      </trkpt>
      <trkpt lat="42.9204" lon="0.12961">
        <ele>2204</ele>
        <time>2010-12-18T15:09:34Z</time>
      </trkpt>
      <trkpt lat="42.9204" lon="0.12955">
        <ele>2206</ele>
        <time>2010-12-18T15:09:53Z</time>
      </trkpt>
      <trkpt lat="42.92036" lon="0.12948">
        <ele>2208</ele>
        <time>2010-12-18T15:10:10Z</time>
      </trkpt>
      <trkpt lat="42.92029" lon="0.1294">
        <ele>2211</ele>
        <time>2010-12-18T15:10:29Z</time>
      </trkpt>
      <trkpt lat="42.92027" lon="0.12938">
        <ele>2211</ele>
        <time>2010-12-18T15:11:10Z</time>
      </trkpt>
      <trkpt lat="42.9202" lon="0.1293">
        <ele>2215</ele>
        <time>2010-12-18T15:11:27Z</time>
      </trkpt>
      <trkpt lat="42.92015" lon="0.1292">
        <ele>2217</ele>
        <time>2010-12-18T15:11:47Z</time>
      </trkpt>
      <trkpt lat="42.92019" lon="0.12917">
        <ele>2220</ele>
        <time>2010-12-18T15:12:01Z</time>
      </trkpt>
      <trkpt lat="42.92028" lon="0.12916">
        <ele>2222</ele>
        <time>2010-12-18T15:12:19Z</time>
      </trkpt>
      <trkpt lat="42.92026" lon="0.1291">
        <ele>2224</ele>
        <time>2010-12-18T15:12:33Z</time>
      </trkpt>
      <trkpt lat="42.92023" lon="0.12904">
        <ele>2226</ele>
        <time>2010-12-18T15:12:49Z</time>
      </trkpt>
      <trkpt lat="42.92025" lon="0.12901">
        <ele>2228</ele>
        <time>2010-12-18T15:13:08Z</time>
      </trkpt>
      <trkpt lat="42.92035" lon="0.129">
        <ele>2230</ele>
        <time>2010-12-18T15:13:26Z</time>
      </trkpt>
      <trkpt lat="42.92033" lon="0.12896">
        <ele>2232</ele>
        <time>2010-12-18T15:13:40Z</time>
      </trkpt>
      <trkpt lat="42.92025" lon="0.12887">
        <ele>2235</ele>
        <time>2010-12-18T15:14:02Z</time>
      </trkpt>
      <trkpt lat="42.92018" lon="0.12878">
        <ele>2238</ele>
        <time>2010-12-18T15:14:22Z</time>
      </trkpt>
      <trkpt lat="42.92017" lon="0.12874">
        <ele>2239</ele>
        <time>2010-12-18T15:14:55Z</time>
      </trkpt>
      <trkpt lat="42.92025" lon="0.12874">
        <ele>2241</ele>
        <time>2010-12-18T15:15:10Z</time>
      </trkpt>
      <trkpt lat="42.9203" lon="0.12872">
        <ele>2242</ele>
        <time>2010-12-18T15:15:28Z</time>
      </trkpt>
      <trkpt lat="42.92023" lon="0.12866">
        <ele>2244</ele>
        <time>2010-12-18T15:15:45Z</time>
      </trkpt>
      <trkpt lat="42.92019" lon="0.12864">
        <ele>2246</ele>
        <time>2010-12-18T15:16:07Z</time>
      </trkpt>
      <trkpt lat="42.92019" lon="0.12864">
        <ele>2246</ele>
        <time>2010-12-18T15:17:10Z</time>
      </trkpt>
      <trkpt lat="42.92009" lon="0.12855">
        <ele>2249</ele>
        <time>2010-12-18T15:17:36Z</time>
      </trkpt>
      <trkpt lat="42.92002" lon="0.12842">
        <ele>2252</ele>
        <time>2010-12-18T15:17:55Z</time>
      </trkpt>
      <trkpt lat="42.91995" lon="0.12831">
        <ele>2255</ele>
        <time>2010-12-18T15:18:15Z</time>
      </trkpt>
      <trkpt lat="42.91994" lon="0.12824">
        <ele>2257</ele>
        <time>2010-12-18T15:18:35Z</time>
      </trkpt>
      <trkpt lat="42.92002" lon="0.12821">
        <ele>2260</ele>
        <time>2010-12-18T15:18:54Z</time>
      </trkpt>
      <trkpt lat="42.92009" lon="0.1282">
        <ele>2262</ele>
        <time>2010-12-18T15:19:08Z</time>
      </trkpt>
      <trkpt lat="42.92021" lon="0.12819">
        <ele>2266</ele>
        <time>2010-12-18T15:19:32Z</time>
      </trkpt>
      <trkpt lat="42.92015" lon="0.12807">
        <ele>2268</ele>
        <time>2010-12-18T15:19:51Z</time>
      </trkpt>
      <trkpt lat="42.9201" lon="0.12796">
        <ele>2271</ele>
        <time>2010-12-18T15:20:09Z</time>
      </trkpt>
      <trkpt lat="42.92012" lon="0.12794">
        <ele>2273</ele>
        <time>2010-12-18T15:20:24Z</time>
      </trkpt>
      <trkpt lat="42.9202" lon="0.12796">
        <ele>2275</ele>
        <time>2010-12-18T15:20:40Z</time>
      </trkpt>
      <trkpt lat="42.9203" lon="0.12797">
        <ele>2277</ele>
        <time>2010-12-18T15:20:57Z</time>
      </trkpt>
      <trkpt lat="42.92037" lon="0.128">
        <ele>2279</ele>
        <time>2010-12-18T15:21:16Z</time>
      </trkpt>
      <trkpt lat="42.92034" lon="0.1279">
        <ele>2282</ele>
        <time>2010-12-18T15:21:33Z</time>
      </trkpt>
      <trkpt lat="42.92031" lon="0.12787">
        <ele>2282</ele>
        <time>2010-12-18T15:22:02Z</time>
      </trkpt>
      <trkpt lat="42.92026" lon="0.12779">
        <ele>2285</ele>
        <time>2010-12-18T15:22:20Z</time>
      </trkpt>
      <trkpt lat="42.92023" lon="0.12771">
        <ele>2288</ele>
        <time>2010-12-18T15:22:40Z</time>
      </trkpt>
      <trkpt lat="42.9203" lon="0.12772">
        <ele>2290</ele>
        <time>2010-12-18T15:22:55Z</time>
      </trkpt>
      <trkpt lat="42.92037" lon="0.12773">
        <ele>2291</ele>
        <time>2010-12-18T15:23:10Z</time>
      </trkpt>
      <trkpt lat="42.92041" lon="0.12772">
        <ele>2293</ele>
        <time>2010-12-18T15:23:36Z</time>
      </trkpt>
      <trkpt lat="42.92041" lon="0.12769">
        <ele>2294</ele>
        <time>2010-12-18T15:24:14Z</time>
      </trkpt>
      <trkpt lat="42.92034" lon="0.12761">
        <ele>2297</ele>
        <time>2010-12-18T15:24:36Z</time>
      </trkpt>
      <trkpt lat="42.92031" lon="0.12758">
        <ele>2298</ele>
        <time>2010-12-18T15:24:57Z</time>
      </trkpt>
      <trkpt lat="42.92029" lon="0.12753">
        <ele>2300</ele>
        <time>2010-12-18T15:25:17Z</time>
      </trkpt>
      <trkpt lat="42.92026" lon="0.1275">
        <ele>2301</ele>
        <time>2010-12-18T15:25:39Z</time>
      </trkpt>
      <trkpt lat="42.92022" lon="0.12745">
        <ele>2302</ele>
        <time>2010-12-18T15:25:54Z</time>
      </trkpt>
      <trkpt lat="42.92017" lon="0.12741">
        <ele>2303</ele>
        <time>2010-12-18T15:26:10Z</time>
      </trkpt>
      <trkpt lat="42.92012" lon="0.12739">
        <ele>2305</ele>
        <time>2010-12-18T15:26:23Z</time>
      </trkpt>
      <trkpt lat="42.92011" lon="0.12738">
        <ele>2305</ele>
        <time>2010-12-18T15:26:41Z</time>
      </trkpt>
      <trkpt lat="42.92005" lon="0.12735">
        <ele>2307</ele>
        <time>2010-12-18T15:26:57Z</time>
      </trkpt>
      <trkpt lat="42.91998" lon="0.12724">
        <ele>2310</ele>
        <time>2010-12-18T15:27:17Z</time>
      </trkpt>
      <trkpt lat="42.91994" lon="0.12713">
        <ele>2313</ele>
        <time>2010-12-18T15:27:37Z</time>
      </trkpt>
      <trkpt lat="42.91985" lon="0.12702">
        <ele>2316</ele>
        <time>2010-12-18T15:27:59Z</time>
      </trkpt>
      <trkpt lat="42.91975" lon="0.12693">
        <ele>2319</ele>
        <time>2010-12-18T15:28:37Z</time>
      </trkpt>
      <trkpt lat="42.91969" lon="0.12692">
        <ele>2320</ele>
        <time>2010-12-18T15:28:53Z</time>
      </trkpt>
      <trkpt lat="42.91968" lon="0.12688">
        <ele>2321</ele>
        <time>2010-12-18T15:29:07Z</time>
      </trkpt>
      <trkpt lat="42.91972" lon="0.12682">
        <ele>2323</ele>
        <time>2010-12-18T15:30:51Z</time>
      </trkpt>
      <trkpt lat="42.91978" lon="0.1268">
        <ele>2325</ele>
        <time>2010-12-18T15:31:26Z</time>
      </trkpt>
      <trkpt lat="42.91986" lon="0.12674">
        <ele>2326</ele>
        <time>2010-12-18T15:31:51Z</time>
      </trkpt>
      <trkpt lat="42.91987" lon="0.12672">
        <ele>2327</ele>
        <time>2010-12-18T15:32:21Z</time>
      </trkpt>
      <trkpt lat="42.91996" lon="0.12668">
        <ele>2330</ele>
        <time>2010-12-18T15:32:35Z</time>
      </trkpt>
      <trkpt lat="42.92005" lon="0.12665">
        <ele>2333</ele>
        <time>2010-12-18T15:32:50Z</time>
      </trkpt>
      <trkpt lat="42.92016" lon="0.12666">
        <ele>2337</ele>
        <time>2010-12-18T15:33:07Z</time>
      </trkpt>
      <trkpt lat="42.92024" lon="0.12665">
        <ele>2340</ele>
        <time>2010-12-18T15:33:23Z</time>
      </trkpt>
      <trkpt lat="42.92032" lon="0.12661">
        <ele>2342</ele>
        <time>2010-12-18T15:33:42Z</time>
      </trkpt>
      <trkpt lat="42.92032" lon="0.12659">
        <ele>2343</ele>
        <time>2010-12-18T15:33:56Z</time>
      </trkpt>
      <trkpt lat="42.9203" lon="0.12645">
        <ele>2347</ele>
        <time>2010-12-18T15:34:15Z</time>
      </trkpt>
      <trkpt lat="42.92029" lon="0.12639">
        <ele>2348</ele>
        <time>2010-12-18T15:34:37Z</time>
      </trkpt>
      <trkpt lat="42.92032" lon="0.12641">
        <ele>2350</ele>
        <time>2010-12-18T15:35:25Z</time>
      </trkpt>
      <trkpt lat="42.92039" lon="0.12647">
        <ele>2353</ele>
        <time>2010-12-18T15:35:43Z</time>
      </trkpt>
      <trkpt lat="42.92043" lon="0.12646">
        <ele>2353</ele>
        <time>2010-12-18T15:36:04Z</time>
      </trkpt>
      <trkpt lat="42.9205" lon="0.12647">
        <ele>2354</ele>
        <time>2010-12-18T15:36:25Z</time>
      </trkpt>
      <trkpt lat="42.92045" lon="0.12642">
        <ele>2356</ele>
        <time>2010-12-18T15:36:41Z</time>
      </trkpt>
      <trkpt lat="42.92042" lon="0.12634">
        <ele>2357</ele>
        <time>2010-12-18T15:37:08Z</time>
      </trkpt>
      <trkpt lat="42.92044" lon="0.12635">
        <ele>2358</ele>
        <time>2010-12-18T15:37:22Z</time>
      </trkpt>
      <trkpt lat="42.92048" lon="0.12637">
        <ele>2359</ele>
        <time>2010-12-18T15:37:37Z</time>
      </trkpt>
      <trkpt lat="42.92052" lon="0.12638">
        <ele>2360</ele>
        <time>2010-12-18T15:37:53Z</time>
      </trkpt>
      <trkpt lat="42.92051" lon="0.12636">
        <ele>2360</ele>
        <time>2010-12-18T15:38:12Z</time>
      </trkpt>
      <trkpt lat="42.92049" lon="0.12634">
        <ele>2361</ele>
        <time>2010-12-18T15:38:28Z</time>
      </trkpt>
      <trkpt lat="42.92053" lon="0.12634">
        <ele>2363</ele>
        <time>2010-12-18T15:38:44Z</time>
      </trkpt>
      <trkpt lat="42.92055" lon="0.12634">
        <ele>2364</ele>
        <time>2010-12-18T15:39:02Z</time>
      </trkpt>
      <trkpt lat="42.92055" lon="0.12629">
        <ele>2366</ele>
        <time>2010-12-18T15:42:10Z</time>
      </trkpt>
      <trkpt lat="42.92118" lon="0.12606">
        <ele>2328</ele>
        <time>2010-12-18T15:59:12Z</time>
      </trkpt>
      <trkpt lat="42.92119" lon="0.12607">
        <ele>2334</ele>
        <time>2010-12-18T15:59:14Z</time>
      </trkpt>
      <trkpt lat="42.9212" lon="0.12607">
        <ele>2342</ele>
        <time>2010-12-18T15:59:18Z</time>
      </trkpt>
      <trkpt lat="42.92121" lon="0.12608">
        <ele>2351</ele>
        <time>2010-12-18T15:59:23Z</time>
      </trkpt>
      <trkpt lat="42.92122" lon="0.12608">
        <ele>2354</ele>
        <time>2010-12-18T15:59:25Z</time>
      </trkpt>
      <trkpt lat="42.92122" lon="0.12608">
        <ele>2354</ele>
        <time>2010-12-18T15:59:26Z</time>
      </trkpt>
      <trkpt lat="42.92123" lon="0.12608">
        <ele>2358</ele>
        <time>2010-12-18T15:59:28Z</time>
      </trkpt>
      <trkpt lat="42.92123" lon="0.1261">
        <ele>2362</ele>
        <time>2010-12-18T15:59:30Z</time>
      </trkpt>
      <trkpt lat="42.92124" lon="0.1261">
        <ele>2365</ele>
        <time>2010-12-18T15:59:33Z</time>
      </trkpt>
      <trkpt lat="42.92125" lon="0.12612">
        <ele>2369</ele>
        <time>2010-12-18T15:59:36Z</time>
      </trkpt>
      <trkpt lat="42.92125" lon="0.12612">
        <ele>2373</ele>
        <time>2010-12-18T15:59:40Z</time>
      </trkpt>
      <trkpt lat="42.92127" lon="0.12611">
        <ele>2376</ele>
        <time>2010-12-18T15:59:43Z</time>
      </trkpt>
      <trkpt lat="42.92127" lon="0.12611">
        <ele>2376</ele>
        <time>2010-12-18T15:59:44Z</time>
      </trkpt>
      <trkpt lat="42.92128" lon="0.12609">
        <ele>2379</ele>
        <time>2010-12-18T15:59:47Z</time>
      </trkpt>
      <trkpt lat="42.92127" lon="0.12607">
        <ele>2383</ele>
        <time>2010-12-18T15:59:51Z</time>
      </trkpt>
      <trkpt lat="42.92128" lon="0.12606">
        <ele>2387</ele>
        <time>2010-12-18T15:59:55Z</time>
      </trkpt>
      <trkpt lat="42.92128" lon="0.12604">
        <ele>2395</ele>
        <time>2010-12-18T16:00:08Z</time>
      </trkpt>
      <trkpt lat="42.92129" lon="0.12604">
        <ele>2398</ele>
        <time>2010-12-18T16:00:17Z</time>
      </trkpt>
      <trkpt lat="42.92129" lon="0.12605">
        <ele>2399</ele>
        <time>2010-12-18T16:00:19Z</time>
      </trkpt>
      <trkpt lat="42.92129" lon="0.12606">
        <ele>2401</ele>
        <time>2010-12-18T16:00:22Z</time>
      </trkpt>
      <trkpt lat="42.92129" lon="0.12607">
        <ele>2404</ele>
        <time>2010-12-18T16:00:32Z</time>
      </trkpt>
      <trkpt lat="42.92132" lon="0.12609">
        <ele>2406</ele>
        <time>2010-12-18T16:00:45Z</time>
      </trkpt>
      <trkpt lat="42.92133" lon="0.12606">
        <ele>2407</ele>
        <time>2010-12-18T16:01:08Z</time>
      </trkpt>
      <trkpt lat="42.92134" lon="0.12605">
        <ele>2408</ele>
        <time>2010-12-18T16:01:26Z</time>
      </trkpt>
      <trkpt lat="42.92137" lon="0.12605">
        <ele>2412</ele>
        <time>2010-12-18T16:01:49Z</time>
      </trkpt>
      <trkpt lat="42.92138" lon="0.12604">
        <ele>2413</ele>
        <time>2010-12-18T16:02:04Z</time>
      </trkpt>
      <trkpt lat="42.92142" lon="0.12603">
        <ele>2417</ele>
        <time>2010-12-18T16:02:22Z</time>
      </trkpt>
      <trkpt lat="42.92142" lon="0.12603">
        <ele>2417</ele>
        <time>2010-12-18T16:02:23Z</time>
      </trkpt>
      <trkpt lat="42.92145" lon="0.12603">
        <ele>2419</ele>
        <time>2010-12-18T16:03:09Z</time>
      </trkpt>
      <trkpt lat="42.9215" lon="0.12603">
        <ele>2418</ele>
        <time>2010-12-18T16:03:28Z</time>
      </trkpt>
      <trkpt lat="42.92154" lon="0.12603">
        <ele>2420</ele>
        <time>2010-12-18T16:03:43Z</time>
      </trkpt>
      <trkpt lat="42.92158" lon="0.12607">
        <ele>2422</ele>
        <time>2010-12-18T16:03:57Z</time>
      </trkpt>
      <trkpt lat="42.92158" lon="0.12611">
        <ele>2425</ele>
        <time>2010-12-18T16:04:04Z</time>
      </trkpt>
      <trkpt lat="42.92159" lon="0.12615">
        <ele>2427</ele>
        <time>2010-12-18T16:04:15Z</time>
      </trkpt>
      <trkpt lat="42.92161" lon="0.12615">
        <ele>2424</ele>
        <time>2010-12-18T16:04:23Z</time>
      </trkpt>
      <trkpt lat="42.92165" lon="0.12611">
        <ele>2427</ele>
        <time>2010-12-18T16:04:32Z</time>
      </trkpt>
      <trkpt lat="42.92169" lon="0.12612">
        <ele>2427</ele>
        <time>2010-12-18T16:04:46Z</time>
      </trkpt>
      <trkpt lat="42.92169" lon="0.12612">
        <ele>2427</ele>
        <time>2010-12-18T16:04:47Z</time>
      </trkpt>
      <trkpt lat="42.92171" lon="0.12611">
        <ele>2429</ele>
        <time>2010-12-18T16:04:50Z</time>
      </trkpt>
      <trkpt lat="42.92175" lon="0.12615">
        <ele>2432</ele>
        <time>2010-12-18T16:05:06Z</time>
      </trkpt>
      <trkpt lat="42.92179" lon="0.12619">
        <ele>2434</ele>
        <time>2010-12-18T16:05:23Z</time>
      </trkpt>
      <trkpt lat="42.92181" lon="0.12619">
        <ele>2435</ele>
        <time>2010-12-18T16:05:29Z</time>
      </trkpt>
      <trkpt lat="42.92183" lon="0.1262">
        <ele>2437</ele>
        <time>2010-12-18T16:05:35Z</time>
      </trkpt>
      <trkpt lat="42.92185" lon="0.12628">
        <ele>2438</ele>
        <time>2010-12-18T16:05:51Z</time>
      </trkpt>
      <trkpt lat="42.92186" lon="0.1263">
        <ele>2441</ele>
        <time>2010-12-18T16:05:58Z</time>
      </trkpt>
      <trkpt lat="42.92187" lon="0.12628">
        <ele>2439</ele>
        <time>2010-12-18T16:06:02Z</time>
      </trkpt>
      <trkpt lat="42.92189" lon="0.12628">
        <ele>2440</ele>
        <time>2010-12-18T16:06:07Z</time>
      </trkpt>
      <trkpt lat="42.92191" lon="0.12627">
        <ele>2439</ele>
        <time>2010-12-18T16:06:12Z</time>
      </trkpt>
      <trkpt lat="42.92192" lon="0.12628">
        <ele>2442</ele>
        <time>2010-12-18T16:06:16Z</time>
      </trkpt>
      <trkpt lat="42.92192" lon="0.12629">
        <ele>2443</ele>
        <time>2010-12-18T16:06:18Z</time>
      </trkpt>
      <trkpt lat="42.92194" lon="0.1263">
        <ele>2442</ele>
        <time>2010-12-18T16:06:41Z</time>
      </trkpt>
      <trkpt lat="42.92199" lon="0.12627">
        <ele>2444</ele>
        <time>2010-12-18T16:06:55Z</time>
      </trkpt>
      <trkpt lat="42.922" lon="0.12628">
        <ele>2446</ele>
        <time>2010-12-18T16:06:58Z</time>
      </trkpt>
      <trkpt lat="42.92201" lon="0.12627">
        <ele>2446</ele>
        <time>2010-12-18T16:07:14Z</time>
      </trkpt>
      <trkpt lat="42.92201" lon="0.12627">
        <ele>2446</ele>
        <time>2010-12-18T16:08:22Z</time>
      </trkpt>
      <trkpt lat="42.92202" lon="0.12627">
        <ele>2446</ele>
        <time>2010-12-18T16:08:45Z</time>
      </trkpt>
      <trkpt lat="42.92202" lon="0.12627">
        <ele>2446</ele>
        <time>2010-12-18T16:08:50Z</time>
      </trkpt>
      <trkpt lat="42.92205" lon="0.12628">
        <ele>2449</ele>
        <time>2010-12-18T16:10:36Z</time>
      </trkpt>
      <trkpt lat="42.92206" lon="0.12634">
        <ele>2451</ele>
        <time>2010-12-18T16:10:51Z</time>
      </trkpt>
      <trkpt lat="42.9221" lon="0.1264">
        <ele>2453</ele>
        <time>2010-12-18T16:11:06Z</time>
      </trkpt>
      <trkpt lat="42.92214" lon="0.1264">
        <ele>2456</ele>
        <time>2010-12-18T16:11:26Z</time>
      </trkpt>
      <trkpt lat="42.92216" lon="0.12641">
        <ele>2459</ele>
        <time>2010-12-18T16:11:36Z</time>
      </trkpt>
      <trkpt lat="42.92218" lon="0.1264">
        <ele>2460</ele>
        <time>2010-12-18T16:11:44Z</time>
      </trkpt>
      <trkpt lat="42.92221" lon="0.12641">
        <ele>2462</ele>
        <time>2010-12-18T16:11:51Z</time>
      </trkpt>
      <trkpt lat="42.92222" lon="0.12644">
        <ele>2464</ele>
        <time>2010-12-18T16:12:04Z</time>
      </trkpt>
      <trkpt lat="42.92224" lon="0.12648">
        <ele>2466</ele>
        <time>2010-12-18T16:12:25Z</time>
      </trkpt>
      <trkpt lat="42.92227" lon="0.12644">
        <ele>2467</ele>
        <time>2010-12-18T16:12:33Z</time>
      </trkpt>
      <trkpt lat="42.92231" lon="0.12647">
        <ele>2469</ele>
        <time>2010-12-18T16:12:48Z</time>
      </trkpt>
      <trkpt lat="42.92235" lon="0.12653">
        <ele>2472</ele>
        <time>2010-12-18T16:13:02Z</time>
      </trkpt>
      <trkpt lat="42.92238" lon="0.12656">
        <ele>2474</ele>
        <time>2010-12-18T16:13:17Z</time>
      </trkpt>
      <trkpt lat="42.92242" lon="0.12661">
        <ele>2477</ele>
        <time>2010-12-18T16:13:34Z</time>
      </trkpt>
      <trkpt lat="42.92244" lon="0.12664">
        <ele>2480</ele>
        <time>2010-12-18T16:13:47Z</time>
      </trkpt>
      <trkpt lat="42.92249" lon="0.12665">
        <ele>2482</ele>
        <time>2010-12-18T16:14:02Z</time>
      </trkpt>
      <trkpt lat="42.92252" lon="0.1267">
        <ele>2484</ele>
        <time>2010-12-18T16:14:18Z</time>
      </trkpt>
      <trkpt lat="42.92255" lon="0.12668">
        <ele>2486</ele>
        <time>2010-12-18T16:14:24Z</time>
      </trkpt>
      <trkpt lat="42.9226" lon="0.12664">
        <ele>2488</ele>
        <time>2010-12-18T16:14:37Z</time>
      </trkpt>
      <trkpt lat="42.9227" lon="0.1266">
        <ele>2489</ele>
        <time>2010-12-18T16:14:55Z</time>
      </trkpt>
      <trkpt lat="42.92276" lon="0.12654">
        <ele>2488</ele>
        <time>2010-12-18T16:15:12Z</time>
      </trkpt>
      <trkpt lat="42.92276" lon="0.12653">
        <ele>2486</ele>
        <time>2010-12-18T16:15:39Z</time>
      </trkpt>
      <trkpt lat="42.92279" lon="0.1265">
        <ele>2489</ele>
        <time>2010-12-18T16:15:56Z</time>
      </trkpt>
      <trkpt lat="42.92289" lon="0.12649">
        <ele>2489</ele>
        <time>2010-12-18T16:16:10Z</time>
      </trkpt>
      <trkpt lat="42.92296" lon="0.1265">
        <ele>2490</ele>
        <time>2010-12-18T16:16:25Z</time>
      </trkpt>
      <trkpt lat="42.92299" lon="0.12651">
        <ele>2492</ele>
        <time>2010-12-18T16:16:31Z</time>
      </trkpt>
      <trkpt lat="42.92301" lon="0.1265">
        <ele>2493</ele>
        <time>2010-12-18T16:16:40Z</time>
      </trkpt>
      <trkpt lat="42.92304" lon="0.12651">
        <ele>2495</ele>
        <time>2010-12-18T16:16:55Z</time>
      </trkpt>
      <trkpt lat="42.92306" lon="0.12652">
        <ele>2498</ele>
        <time>2010-12-18T16:17:12Z</time>
      </trkpt>
      <trkpt lat="42.92307" lon="0.12652">
        <ele>2499</ele>
        <time>2010-12-18T16:17:25Z</time>
      </trkpt>
      <trkpt lat="42.9231" lon="0.12652">
        <ele>2501</ele>
        <time>2010-12-18T16:17:47Z</time>
      </trkpt>
      <trkpt lat="42.92313" lon="0.12656">
        <ele>2503</ele>
        <time>2010-12-18T16:18:04Z</time>
      </trkpt>
      <trkpt lat="42.92314" lon="0.1266">
        <ele>2504</ele>
        <time>2010-12-18T16:18:12Z</time>
      </trkpt>
      <trkpt lat="42.92321" lon="0.12665">
        <ele>2507</ele>
        <time>2010-12-18T16:18:30Z</time>
      </trkpt>
      <trkpt lat="42.92327" lon="0.12669">
        <ele>2510</ele>
        <time>2010-12-18T16:18:48Z</time>
      </trkpt>
      <trkpt lat="42.92331" lon="0.12671">
        <ele>2513</ele>
        <time>2010-12-18T16:18:56Z</time>
      </trkpt>
      <trkpt lat="42.92335" lon="0.12671">
        <ele>2515</ele>
        <time>2010-12-18T16:19:06Z</time>
      </trkpt>
      <trkpt lat="42.92343" lon="0.12669">
        <ele>2518</ele>
        <time>2010-12-18T16:19:25Z</time>
      </trkpt>
      <trkpt lat="42.92351" lon="0.12668">
        <ele>2519</ele>
        <time>2010-12-18T16:19:44Z</time>
      </trkpt>
      <trkpt lat="42.92354" lon="0.12669">
        <ele>2519</ele>
        <time>2010-12-18T16:19:47Z</time>
      </trkpt>
      <trkpt lat="42.92363" lon="0.12668">
        <ele>2520</ele>
        <time>2010-12-18T16:20:09Z</time>
      </trkpt>
      <trkpt lat="42.92363" lon="0.12669">
        <ele>2521</ele>
        <time>2010-12-18T16:21:11Z</time>
      </trkpt>
      <trkpt lat="42.92362" lon="0.12669">
        <ele>2522</ele>
        <time>2010-12-18T16:21:49Z</time>
      </trkpt>
      <trkpt lat="42.92363" lon="0.1267">
        <ele>2521</ele>
        <time>2010-12-18T16:21:56Z</time>
      </trkpt>
      <trkpt lat="42.92365" lon="0.12668">
        <ele>2521</ele>
        <time>2010-12-18T16:22:42Z</time>
      </trkpt>
      <trkpt lat="42.92364" lon="0.1267">
        <ele>2522</ele>
        <time>2010-12-18T16:23:10Z</time>
      </trkpt>
      <trkpt lat="42.92359" lon="0.12671">
        <ele>2521</ele>
        <time>2010-12-18T16:23:38Z</time>
      </trkpt>
      <trkpt lat="42.92358" lon="0.1267">
        <ele>2520</ele>
        <time>2010-12-18T16:24:35Z</time>
      </trkpt>
      <trkpt lat="42.9236" lon="0.12669">
        <ele>2520</ele>
        <time>2010-12-18T16:25:02Z</time>
      </trkpt>
      <trkpt lat="42.92362" lon="0.12667">
        <ele>2522</ele>
        <time>2010-12-18T16:25:12Z</time>
      </trkpt>
      <trkpt lat="42.92359" lon="0.1267">
        <ele>2522</ele>
        <time>2010-12-18T16:25:23Z</time>
      </trkpt>
      <trkpt lat="42.9236" lon="0.1267">
        <ele>2522</ele>
        <time>2010-12-18T16:25:38Z</time>
      </trkpt>
      <trkpt lat="42.9236" lon="0.1267">
        <ele>2523</ele>
        <time>2010-12-18T16:25:52Z</time>
      </trkpt>
      <trkpt lat="42.92361" lon="0.12668">
        <ele>2523</ele>
        <time>2010-12-18T16:26:19Z</time>
      </trkpt>
      <trkpt lat="42.92362" lon="0.12668">
        <ele>2522</ele>
        <time>2010-12-18T16:26:46Z</time>
      </trkpt>
      <trkpt lat="42.9236" lon="0.12671">
        <ele>2522</ele>
        <time>2010-12-18T16:27:13Z</time>
      </trkpt>
      <trkpt lat="42.9236" lon="0.1267">
        <ele>2521</ele>
        <time>2010-12-18T16:27:31Z</time>
      </trkpt>
      <trkpt lat="42.92362" lon="0.12669">
        <ele>2521</ele>
        <time>2010-12-18T16:27:56Z</time>
      </trkpt>
      <trkpt lat="42.92362" lon="0.1267">
        <ele>2522</ele>
        <time>2010-12-18T16:28:25Z</time>
      </trkpt>
      <trkpt lat="42.92357" lon="0.12671">
        <ele>2521</ele>
        <time>2010-12-18T16:28:43Z</time>
      </trkpt>
      <trkpt lat="42.92356" lon="0.12671">
        <ele>2520</ele>
        <time>2010-12-18T16:28:44Z</time>
      </trkpt>
      <trkpt lat="42.92346" lon="0.12671">
        <ele>2520</ele>
        <time>2010-12-18T16:28:59Z</time>
      </trkpt>
      <trkpt lat="42.92342" lon="0.12672">
        <ele>2520</ele>
        <time>2010-12-18T16:29:04Z</time>
      </trkpt>
      <trkpt lat="42.92334" lon="0.12673">
        <ele>2516</ele>
        <time>2010-12-18T16:29:13Z</time>
      </trkpt>
      <trkpt lat="42.92334" lon="0.12673">
        <ele>2516</ele>
        <time>2010-12-18T16:29:14Z</time>
      </trkpt>
      <trkpt lat="42.92327" lon="0.1267">
        <ele>2513</ele>
        <time>2010-12-18T16:29:24Z</time>
      </trkpt>
      <trkpt lat="42.92325" lon="0.12668">
        <ele>2510</ele>
        <time>2010-12-18T16:29:27Z</time>
      </trkpt>
      <trkpt lat="42.9232" lon="0.12666">
        <ele>2508</ele>
        <time>2010-12-18T16:29:31Z</time>
      </trkpt>
      <trkpt lat="42.92318" lon="0.12663">
        <ele>2507</ele>
        <time>2010-12-18T16:29:37Z</time>
      </trkpt>
      <trkpt lat="42.92313" lon="0.1266">
        <ele>2505</ele>
        <time>2010-12-18T16:29:49Z</time>
      </trkpt>
      <trkpt lat="42.92309" lon="0.12656">
        <ele>2503</ele>
        <time>2010-12-18T16:29:56Z</time>
      </trkpt>
      <trkpt lat="42.92309" lon="0.12651">
        <ele>2501</ele>
        <time>2010-12-18T16:30:08Z</time>
      </trkpt>
      <trkpt lat="42.92307" lon="0.12653">
        <ele>2500</ele>
        <time>2010-12-18T16:30:21Z</time>
      </trkpt>
      <trkpt lat="42.92303" lon="0.1265">
        <ele>2497</ele>
        <time>2010-12-18T16:30:34Z</time>
      </trkpt>
      <trkpt lat="42.92301" lon="0.12646">
        <ele>2495</ele>
        <time>2010-12-18T16:30:43Z</time>
      </trkpt>
      <trkpt lat="42.92295" lon="0.12645">
        <ele>2493</ele>
        <time>2010-12-18T16:30:54Z</time>
      </trkpt>
      <trkpt lat="42.92291" lon="0.12646">
        <ele>2491</ele>
        <time>2010-12-18T16:30:58Z</time>
      </trkpt>
      <trkpt lat="42.92287" lon="0.12647">
        <ele>2489</ele>
        <time>2010-12-18T16:31:01Z</time>
      </trkpt>
      <trkpt lat="42.9228" lon="0.12651">
        <ele>2490</ele>
        <time>2010-12-18T16:31:15Z</time>
      </trkpt>
      <trkpt lat="42.92279" lon="0.12654">
        <ele>2489</ele>
        <time>2010-12-18T16:31:25Z</time>
      </trkpt>
      <trkpt lat="42.92272" lon="0.12659">
        <ele>2491</ele>
        <time>2010-12-18T16:31:44Z</time>
      </trkpt>
      <trkpt lat="42.9226" lon="0.12666">
        <ele>2490</ele>
        <time>2010-12-18T16:32:00Z</time>
      </trkpt>
      <trkpt lat="42.92251" lon="0.12669">
        <ele>2486</ele>
        <time>2010-12-18T16:32:12Z</time>
      </trkpt>
      <trkpt lat="42.92249" lon="0.12668">
        <ele>2484</ele>
        <time>2010-12-18T16:32:16Z</time>
      </trkpt>
      <trkpt lat="42.92244" lon="0.12668">
        <ele>2482</ele>
        <time>2010-12-18T16:32:27Z</time>
      </trkpt>
      <trkpt lat="42.92244" lon="0.12668">
        <ele>2482</ele>
        <time>2010-12-18T16:32:28Z</time>
      </trkpt>
      <trkpt lat="42.92243" lon="0.12667">
        <ele>2479</ele>
        <time>2010-12-18T16:32:53Z</time>
      </trkpt>
      <trkpt lat="42.92241" lon="0.12663">
        <ele>2480</ele>
        <time>2010-12-18T16:32:59Z</time>
      </trkpt>
      <trkpt lat="42.92237" lon="0.12656">
        <ele>2474</ele>
        <time>2010-12-18T16:33:09Z</time>
      </trkpt>
      <trkpt lat="42.92235" lon="0.12651">
        <ele>2472</ele>
        <time>2010-12-18T16:33:16Z</time>
      </trkpt>
      <trkpt lat="42.9223" lon="0.1265">
        <ele>2471</ele>
        <time>2010-12-18T16:33:23Z</time>
      </trkpt>
      <trkpt lat="42.92229" lon="0.12648">
        <ele>2469</ele>
        <time>2010-12-18T16:33:26Z</time>
      </trkpt>
      <trkpt lat="42.92226" lon="0.12646">
        <ele>2467</ele>
        <time>2010-12-18T16:33:31Z</time>
      </trkpt>
      <trkpt lat="42.92225" lon="0.12643">
        <ele>2465</ele>
        <time>2010-12-18T16:33:33Z</time>
      </trkpt>
      <trkpt lat="42.92223" lon="0.12642">
        <ele>2465</ele>
        <time>2010-12-18T16:33:37Z</time>
      </trkpt>
      <trkpt lat="42.92219" lon="0.1264">
        <ele>2463</ele>
        <time>2010-12-18T16:33:47Z</time>
      </trkpt>
      <trkpt lat="42.92214" lon="0.12641">
        <ele>2460</ele>
        <time>2010-12-18T16:33:56Z</time>
      </trkpt>
      <trkpt lat="42.92214" lon="0.12641">
        <ele>2459</ele>
        <time>2010-12-18T16:33:57Z</time>
      </trkpt>
      <trkpt lat="42.9221" lon="0.12637">
        <ele>2457</ele>
        <time>2010-12-18T16:34:03Z</time>
      </trkpt>
      <trkpt lat="42.92208" lon="0.12633">
        <ele>2454</ele>
        <time>2010-12-18T16:34:08Z</time>
      </trkpt>
      <trkpt lat="42.92202" lon="0.1263">
        <ele>2451</ele>
        <time>2010-12-18T16:34:18Z</time>
      </trkpt>
      <trkpt lat="42.92199" lon="0.12629">
        <ele>2450</ele>
        <time>2010-12-18T16:34:25Z</time>
      </trkpt>
      <trkpt lat="42.92198" lon="0.12628">
        <ele>2447</ele>
        <time>2010-12-18T16:35:10Z</time>
      </trkpt>
      <trkpt lat="42.92196" lon="0.12625">
        <ele>2444</ele>
        <time>2010-12-18T16:35:17Z</time>
      </trkpt>
      <trkpt lat="42.92196" lon="0.12624">
        <ele>2443</ele>
        <time>2010-12-18T16:35:18Z</time>
      </trkpt>
      <trkpt lat="42.92197" lon="0.12621">
        <ele>2442</ele>
        <time>2010-12-18T16:35:24Z</time>
      </trkpt>
      <trkpt lat="42.92197" lon="0.12613">
        <ele>2440</ele>
        <time>2010-12-18T16:35:35Z</time>
      </trkpt>
      <trkpt lat="42.92198" lon="0.12605">
        <ele>2437</ele>
        <time>2010-12-18T16:35:49Z</time>
      </trkpt>
      <trkpt lat="42.92201" lon="0.12596">
        <ele>2435</ele>
        <time>2010-12-18T16:36:05Z</time>
      </trkpt>
      <trkpt lat="42.92201" lon="0.12595">
        <ele>2435</ele>
        <time>2010-12-18T16:36:06Z</time>
      </trkpt>
      <trkpt lat="42.92203" lon="0.12585">
        <ele>2431</ele>
        <time>2010-12-18T16:36:20Z</time>
      </trkpt>
      <trkpt lat="42.92204" lon="0.12582">
        <ele>2431</ele>
        <time>2010-12-18T16:36:35Z</time>
      </trkpt>
      <trkpt lat="42.92204" lon="0.12581">
        <ele>2430</ele>
        <time>2010-12-18T16:37:16Z</time>
      </trkpt>
      <trkpt lat="42.92204" lon="0.1258">
        <ele>2432</ele>
        <time>2010-12-18T16:44:43Z</time>
      </trkpt>
      <trkpt lat="42.92204" lon="0.1258">
        <ele>2433</ele>
        <time>2010-12-18T16:45:49Z</time>
      </trkpt>
      <trkpt lat="42.92204" lon="0.1258">
        <ele>2433</ele>
        <time>2010-12-18T16:45:54Z</time>
      </trkpt>
      <trkpt lat="42.92205" lon="0.12574">
        <ele>2431</ele>
        <time>2010-12-18T16:45:58Z</time>
      </trkpt>
      <trkpt lat="42.92205" lon="0.12573">
        <ele>2430</ele>
        <time>2010-12-18T16:45:59Z</time>
      </trkpt>
      <trkpt lat="42.92203" lon="0.1257">
        <ele>2428</ele>
        <time>2010-12-18T16:46:03Z</time>
      </trkpt>
      <trkpt lat="42.92202" lon="0.12568">
        <ele>2428</ele>
        <time>2010-12-18T16:46:33Z</time>
      </trkpt>
      <trkpt lat="42.922" lon="0.12567">
        <ele>2427</ele>
        <time>2010-12-18T16:46:43Z</time>
      </trkpt>
      <trkpt lat="42.922" lon="0.12565">
        <ele>2426</ele>
        <time>2010-12-18T16:46:46Z</time>
      </trkpt>
      <trkpt lat="42.922" lon="0.12566">
        <ele>2427</ele>
        <time>2010-12-18T16:47:55Z</time>
      </trkpt>
      <trkpt lat="42.92201" lon="0.12568">
        <ele>2427</ele>
        <time>2010-12-18T16:48:15Z</time>
      </trkpt>
      <trkpt lat="42.922" lon="0.12566">
        <ele>2427</ele>
        <time>2010-12-18T16:49:10Z</time>
      </trkpt>
      <trkpt lat="42.92199" lon="0.12565">
        <ele>2425</ele>
        <time>2010-12-18T16:49:13Z</time>
      </trkpt>
      <trkpt lat="42.92198" lon="0.12562">
        <ele>2425</ele>
        <time>2010-12-18T16:49:30Z</time>
      </trkpt>
      <trkpt lat="42.92193" lon="0.12563">
        <ele>2424</ele>
        <time>2010-12-18T16:50:00Z</time>
      </trkpt>
      <trkpt lat="42.92191" lon="0.12563">
        <ele>2423</ele>
        <time>2010-12-18T16:50:14Z</time>
      </trkpt>
      <trkpt lat="42.92188" lon="0.12561">
        <ele>2421</ele>
        <time>2010-12-18T16:50:27Z</time>
      </trkpt>
      <trkpt lat="42.92187" lon="0.1256">
        <ele>2421</ele>
        <time>2010-12-18T16:50:50Z</time>
      </trkpt>
      <trkpt lat="42.92188" lon="0.12557">
        <ele>2420</ele>
        <time>2010-12-18T16:51:09Z</time>
      </trkpt>
      <trkpt lat="42.92187" lon="0.12557">
        <ele>2419</ele>
        <time>2010-12-18T16:52:27Z</time>
      </trkpt>
      <trkpt lat="42.92181" lon="0.12559">
        <ele>2417</ele>
        <time>2010-12-18T16:52:36Z</time>
      </trkpt>
      <trkpt lat="42.9218" lon="0.12559">
        <ele>2416</ele>
        <time>2010-12-18T16:53:15Z</time>
      </trkpt>
      <trkpt lat="42.9218" lon="0.12559">
        <ele>2416</ele>
        <time>2010-12-18T16:53:42Z</time>
      </trkpt>
      <trkpt lat="42.92177" lon="0.12554">
        <ele>2412</ele>
        <time>2010-12-18T16:53:45Z</time>
      </trkpt>
      <trkpt lat="42.92177" lon="0.12554">
        <ele>2413</ele>
        <time>2010-12-18T16:53:46Z</time>
      </trkpt>
      <trkpt lat="42.92176" lon="0.12553">
        <ele>2412</ele>
        <time>2010-12-18T16:54:02Z</time>
      </trkpt>
      <trkpt lat="42.92173" lon="0.12549">
        <ele>2408</ele>
        <time>2010-12-18T16:54:05Z</time>
      </trkpt>
      <trkpt lat="42.9217" lon="0.12548">
        <ele>2407</ele>
        <time>2010-12-18T16:54:48Z</time>
      </trkpt>
      <trkpt lat="42.92169" lon="0.12547">
        <ele>2407</ele>
        <time>2010-12-18T16:55:31Z</time>
      </trkpt>
      <trkpt lat="42.92168" lon="0.12537">
        <ele>2403</ele>
        <time>2010-12-18T16:55:34Z</time>
      </trkpt>
      <trkpt lat="42.92167" lon="0.12535">
        <ele>2403</ele>
        <time>2010-12-18T16:55:38Z</time>
      </trkpt>
      <trkpt lat="42.92162" lon="0.12533">
        <ele>2400</ele>
        <time>2010-12-18T16:55:42Z</time>
      </trkpt>
      <trkpt lat="42.9215" lon="0.12535">
        <ele>2396</ele>
        <time>2010-12-18T16:55:48Z</time>
      </trkpt>
      <trkpt lat="42.92149" lon="0.12536">
        <ele>2396</ele>
        <time>2010-12-18T16:55:49Z</time>
      </trkpt>
      <trkpt lat="42.92147" lon="0.12535">
        <ele>2396</ele>
        <time>2010-12-18T16:56:06Z</time>
      </trkpt>
      <trkpt lat="42.92147" lon="0.12535">
        <ele>2396</ele>
        <time>2010-12-18T16:56:58Z</time>
      </trkpt>
      <trkpt lat="42.92146" lon="0.12534">
        <ele>2395</ele>
        <time>2010-12-18T16:57:05Z</time>
      </trkpt>
      <trkpt lat="42.92145" lon="0.12526">
        <ele>2392</ele>
        <time>2010-12-18T16:57:10Z</time>
      </trkpt>
      <trkpt lat="42.92146" lon="0.12526">
        <ele>2393</ele>
        <time>2010-12-18T16:57:54Z</time>
      </trkpt>
      <trkpt lat="42.92145" lon="0.12521">
        <ele>2391</ele>
        <time>2010-12-18T16:57:57Z</time>
      </trkpt>
      <trkpt lat="42.92147" lon="0.12515">
        <ele>2389</ele>
        <time>2010-12-18T16:58:11Z</time>
      </trkpt>
      <trkpt lat="42.92147" lon="0.12515">
        <ele>2389</ele>
        <time>2010-12-18T16:58:54Z</time>
      </trkpt>
      <trkpt lat="42.92145" lon="0.12517">
        <ele>2390</ele>
        <time>2010-12-18T16:59:34Z</time>
      </trkpt>
      <trkpt lat="42.9214" lon="0.12521">
        <ele>2389</ele>
        <time>2010-12-18T16:59:39Z</time>
      </trkpt>
      <trkpt lat="42.92137" lon="0.12519">
        <ele>2386</ele>
        <time>2010-12-18T16:59:43Z</time>
      </trkpt>
      <trkpt lat="42.92137" lon="0.12518">
        <ele>2386</ele>
        <time>2010-12-18T16:59:49Z</time>
      </trkpt>
      <trkpt lat="42.92134" lon="0.12514">
        <ele>2383</ele>
        <time>2010-12-18T16:59:52Z</time>
      </trkpt>
      <trkpt lat="42.92132" lon="0.12513">
        <ele>2382</ele>
        <time>2010-12-18T16:59:53Z</time>
      </trkpt>
      <trkpt lat="42.92126" lon="0.12506">
        <ele>2376</ele>
        <time>2010-12-18T16:59:56Z</time>
      </trkpt>
      <trkpt lat="42.92122" lon="0.125">
        <ele>2373</ele>
        <time>2010-12-18T16:59:58Z</time>
      </trkpt>
      <trkpt lat="42.92119" lon="0.12494">
        <ele>2369</ele>
        <time>2010-12-18T17:00:07Z</time>
      </trkpt>
      <trkpt lat="42.92119" lon="0.12494">
        <ele>2370</ele>
        <time>2010-12-18T17:01:09Z</time>
      </trkpt>
      <trkpt lat="42.92115" lon="0.12495">
        <ele>2368</ele>
        <time>2010-12-18T17:01:12Z</time>
      </trkpt>
      <trkpt lat="42.92114" lon="0.12496">
        <ele>2368</ele>
        <time>2010-12-18T17:01:13Z</time>
      </trkpt>
      <trkpt lat="42.92111" lon="0.12498">
        <ele>2367</ele>
        <time>2010-12-18T17:01:20Z</time>
      </trkpt>
      <trkpt lat="42.92109" lon="0.12487">
        <ele>2364</ele>
        <time>2010-12-18T17:01:25Z</time>
      </trkpt>
      <trkpt lat="42.92109" lon="0.12486">
        <ele>2364</ele>
        <time>2010-12-18T17:01:26Z</time>
      </trkpt>
      <trkpt lat="42.92109" lon="0.12486">
        <ele>2364</ele>
        <time>2010-12-18T17:02:13Z</time>
      </trkpt>
      <trkpt lat="42.92109" lon="0.1248">
        <ele>2363</ele>
        <time>2010-12-18T17:03:35Z</time>
      </trkpt>
      <trkpt lat="42.92105" lon="0.12478">
        <ele>2359</ele>
        <time>2010-12-18T17:03:38Z</time>
      </trkpt>
      <trkpt lat="42.921" lon="0.12469">
        <ele>2355</ele>
        <time>2010-12-18T17:03:41Z</time>
      </trkpt>
      <trkpt lat="42.92097" lon="0.12461">
        <ele>2351</ele>
        <time>2010-12-18T17:03:43Z</time>
      </trkpt>
      <trkpt lat="42.92095" lon="0.12456">
        <ele>2348</ele>
        <time>2010-12-18T17:03:45Z</time>
      </trkpt>
      <trkpt lat="42.92096" lon="0.12445">
        <ele>2344</ele>
        <time>2010-12-18T17:03:47Z</time>
      </trkpt>
      <trkpt lat="42.92085" lon="0.12424">
        <ele>2337</ele>
        <time>2010-12-18T17:03:52Z</time>
      </trkpt>
      <trkpt lat="42.92072" lon="0.12409">
        <ele>2330</ele>
        <time>2010-12-18T17:03:55Z</time>
      </trkpt>
      <trkpt lat="42.92072" lon="0.12405">
        <ele>2327</ele>
        <time>2010-12-18T17:03:56Z</time>
      </trkpt>
      <trkpt lat="42.92071" lon="0.12403">
        <ele>2326</ele>
        <time>2010-12-18T17:03:58Z</time>
      </trkpt>
      <trkpt lat="42.92069" lon="0.12403">
        <ele>2326</ele>
        <time>2010-12-18T17:04:17Z</time>
      </trkpt>
      <trkpt lat="42.9207" lon="0.12402">
        <ele>2327</ele>
        <time>2010-12-18T17:05:20Z</time>
      </trkpt>
      <trkpt lat="42.9207" lon="0.12398">
        <ele>2326</ele>
        <time>2010-12-18T17:05:40Z</time>
      </trkpt>
      <trkpt lat="42.92072" lon="0.12392">
        <ele>2325</ele>
        <time>2010-12-18T17:05:46Z</time>
      </trkpt>
      <trkpt lat="42.92068" lon="0.12383">
        <ele>2322</ele>
        <time>2010-12-18T17:05:50Z</time>
      </trkpt>
      <trkpt lat="42.92066" lon="0.12379">
        <ele>2320</ele>
        <time>2010-12-18T17:05:51Z</time>
      </trkpt>
      <trkpt lat="42.92061" lon="0.12366">
        <ele>2315</ele>
        <time>2010-12-18T17:05:54Z</time>
      </trkpt>
      <trkpt lat="42.92052" lon="0.12353">
        <ele>2310</ele>
        <time>2010-12-18T17:05:57Z</time>
      </trkpt>
      <trkpt lat="42.92044" lon="0.12342">
        <ele>2306</ele>
        <time>2010-12-18T17:06:00Z</time>
      </trkpt>
      <trkpt lat="42.92041" lon="0.12338">
        <ele>2305</ele>
        <time>2010-12-18T17:06:01Z</time>
      </trkpt>
      <trkpt lat="42.92033" lon="0.12326">
        <ele>2301</ele>
        <time>2010-12-18T17:06:05Z</time>
      </trkpt>
      <trkpt lat="42.92028" lon="0.12321">
        <ele>2300</ele>
        <time>2010-12-18T17:06:07Z</time>
      </trkpt>
      <trkpt lat="42.92024" lon="0.12322">
        <ele>2299</ele>
        <time>2010-12-18T17:06:35Z</time>
      </trkpt>
      <trkpt lat="42.92026" lon="0.12324">
        <ele>2300</ele>
        <time>2010-12-18T17:06:50Z</time>
      </trkpt>
      <trkpt lat="42.92027" lon="0.12325">
        <ele>2301</ele>
        <time>2010-12-18T17:07:12Z</time>
      </trkpt>
      <trkpt lat="42.92026" lon="0.12325">
        <ele>2301</ele>
        <time>2010-12-18T17:07:47Z</time>
      </trkpt>
      <trkpt lat="42.92023" lon="0.12333">
        <ele>2296</ele>
        <time>2010-12-18T17:07:51Z</time>
      </trkpt>
      <trkpt lat="42.92019" lon="0.12329">
        <ele>2294</ele>
        <time>2010-12-18T17:07:54Z</time>
      </trkpt>
      <trkpt lat="42.92018" lon="0.12329">
        <ele>2294</ele>
        <time>2010-12-18T17:09:42Z</time>
      </trkpt>
      <trkpt lat="42.9201" lon="0.12328">
        <ele>2292</ele>
        <time>2010-12-18T17:10:32Z</time>
      </trkpt>
      <trkpt lat="42.92005" lon="0.12324">
        <ele>2291</ele>
        <time>2010-12-18T17:10:35Z</time>
      </trkpt>
      <trkpt lat="42.92004" lon="0.12329">
        <ele>2291</ele>
        <time>2010-12-18T17:11:59Z</time>
      </trkpt>
      <trkpt lat="42.92004" lon="0.1233">
        <ele>2292</ele>
        <time>2010-12-18T17:12:14Z</time>
      </trkpt>
      <trkpt lat="42.92001" lon="0.12339">
        <ele>2288</ele>
        <time>2010-12-18T17:12:18Z</time>
      </trkpt>
      <trkpt lat="42.91997" lon="0.12339">
        <ele>2285</ele>
        <time>2010-12-18T17:12:19Z</time>
      </trkpt>
      <trkpt lat="42.91993" lon="0.12347">
        <ele>2282</ele>
        <time>2010-12-18T17:12:21Z</time>
      </trkpt>
      <trkpt lat="42.91988" lon="0.12353">
        <ele>2276</ele>
        <time>2010-12-18T17:12:23Z</time>
      </trkpt>
      <trkpt lat="42.91982" lon="0.12358">
        <ele>2271</ele>
        <time>2010-12-18T17:12:25Z</time>
      </trkpt>
      <trkpt lat="42.91974" lon="0.12361">
        <ele>2266</ele>
        <time>2010-12-18T17:12:27Z</time>
      </trkpt>
      <trkpt lat="42.91966" lon="0.12366">
        <ele>2260</ele>
        <time>2010-12-18T17:12:29Z</time>
      </trkpt>
      <trkpt lat="42.91962" lon="0.1237">
        <ele>2257</ele>
        <time>2010-12-18T17:12:30Z</time>
      </trkpt>
      <trkpt lat="42.91952" lon="0.1237">
        <ele>2250</ele>
        <time>2010-12-18T17:12:34Z</time>
      </trkpt>
      <trkpt lat="42.91949" lon="0.12365">
        <ele>2249</ele>
        <time>2010-12-18T17:12:35Z</time>
      </trkpt>
      <trkpt lat="42.91948" lon="0.1235">
        <ele>2247</ele>
        <time>2010-12-18T17:12:38Z</time>
      </trkpt>
      <trkpt lat="42.91948" lon="0.1235">
        <ele>2247</ele>
        <time>2010-12-18T17:13:31Z</time>
      </trkpt>
      <trkpt lat="42.91934" lon="0.12338">
        <ele>2244</ele>
        <time>2010-12-18T17:13:37Z</time>
      </trkpt>
      <trkpt lat="42.91929" lon="0.12334">
        <ele>2243</ele>
        <time>2010-12-18T17:13:39Z</time>
      </trkpt>
      <trkpt lat="42.91917" lon="0.12341">
        <ele>2238</ele>
        <time>2010-12-18T17:13:42Z</time>
      </trkpt>
      <trkpt lat="42.91899" lon="0.12352">
        <ele>2230</ele>
        <time>2010-12-18T17:13:45Z</time>
      </trkpt>
      <trkpt lat="42.91893" lon="0.12356">
        <ele>2228</ele>
        <time>2010-12-18T17:13:46Z</time>
      </trkpt>
      <trkpt lat="42.91884" lon="0.12365">
        <ele>2226</ele>
        <time>2010-12-18T17:13:48Z</time>
      </trkpt>
      <trkpt lat="42.91877" lon="0.12369">
        <ele>2224</ele>
        <time>2010-12-18T17:13:51Z</time>
      </trkpt>
      <trkpt lat="42.91876" lon="0.12369">
        <ele>2224</ele>
        <time>2010-12-18T17:14:31Z</time>
      </trkpt>
      <trkpt lat="42.91873" lon="0.12355">
        <ele>2220</ele>
        <time>2010-12-18T17:14:37Z</time>
      </trkpt>
      <trkpt lat="42.91868" lon="0.12339">
        <ele>2217</ele>
        <time>2010-12-18T17:14:43Z</time>
      </trkpt>
      <trkpt lat="42.91863" lon="0.12324">
        <ele>2215</ele>
        <time>2010-12-18T17:14:51Z</time>
      </trkpt>
      <trkpt lat="42.91863" lon="0.12323">
        <ele>2215</ele>
        <time>2010-12-18T17:14:57Z</time>
      </trkpt>
      <trkpt lat="42.91856" lon="0.1233">
        <ele>2210</ele>
        <time>2010-12-18T17:15:01Z</time>
      </trkpt>
      <trkpt lat="42.91848" lon="0.12334">
        <ele>2206</ele>
        <time>2010-12-18T17:15:03Z</time>
      </trkpt>
      <trkpt lat="42.91843" lon="0.12338">
        <ele>2202</ele>
        <time>2010-12-18T17:15:04Z</time>
      </trkpt>
      <trkpt lat="42.91832" lon="0.12346">
        <ele>2197</ele>
        <time>2010-12-18T17:15:06Z</time>
      </trkpt>
      <trkpt lat="42.91826" lon="0.12347">
        <ele>2196</ele>
        <time>2010-12-18T17:15:07Z</time>
      </trkpt>
      <trkpt lat="42.91815" lon="0.12351">
        <ele>2189</ele>
        <time>2010-12-18T17:15:09Z</time>
      </trkpt>
      <trkpt lat="42.91812" lon="0.12354">
        <ele>2187</ele>
        <time>2010-12-18T17:15:10Z</time>
      </trkpt>
      <trkpt lat="42.9181" lon="0.12361">
        <ele>2185</ele>
        <time>2010-12-18T17:15:13Z</time>
      </trkpt>
      <trkpt lat="42.91808" lon="0.12359">
        <ele>2186</ele>
        <time>2010-12-18T17:15:56Z</time>
      </trkpt>
      <trkpt lat="42.91802" lon="0.12366">
        <ele>2183</ele>
        <time>2010-12-18T17:15:59Z</time>
      </trkpt>
      <trkpt lat="42.91795" lon="0.1238">
        <ele>2180</ele>
        <time>2010-12-18T17:16:02Z</time>
      </trkpt>
      <trkpt lat="42.91783" lon="0.12399">
        <ele>2176</ele>
        <time>2010-12-18T17:16:05Z</time>
      </trkpt>
      <trkpt lat="42.9177" lon="0.12414">
        <ele>2172</ele>
        <time>2010-12-18T17:16:11Z</time>
      </trkpt>
      <trkpt lat="42.91769" lon="0.12414">
        <ele>2172</ele>
        <time>2010-12-18T17:16:28Z</time>
      </trkpt>
      <trkpt lat="42.91766" lon="0.12402">
        <ele>2168</ele>
        <time>2010-12-18T17:16:31Z</time>
      </trkpt>
      <trkpt lat="42.9176" lon="0.12385">
        <ele>2164</ele>
        <time>2010-12-18T17:16:33Z</time>
      </trkpt>
      <trkpt lat="42.91756" lon="0.12374">
        <ele>2158</ele>
        <time>2010-12-18T17:16:34Z</time>
      </trkpt>
      <trkpt lat="42.91743" lon="0.12343">
        <ele>2153</ele>
        <time>2010-12-18T17:16:37Z</time>
      </trkpt>
      <trkpt lat="42.91737" lon="0.12332">
        <ele>2146</ele>
        <time>2010-12-18T17:16:38Z</time>
      </trkpt>
      <trkpt lat="42.91726" lon="0.12312">
        <ele>2141</ele>
        <time>2010-12-18T17:16:40Z</time>
      </trkpt>
      <trkpt lat="42.91722" lon="0.12304">
        <ele>2140</ele>
        <time>2010-12-18T17:16:41Z</time>
      </trkpt>
      <trkpt lat="42.91716" lon="0.12287">
        <ele>2133</ele>
        <time>2010-12-18T17:16:43Z</time>
      </trkpt>
      <trkpt lat="42.91714" lon="0.12279">
        <ele>2135</ele>
        <time>2010-12-18T17:16:44Z</time>
      </trkpt>
      <trkpt lat="42.9171" lon="0.12258">
        <ele>2131</ele>
        <time>2010-12-18T17:16:50Z</time>
      </trkpt>
      <trkpt lat="42.91704" lon="0.12254">
        <ele>2130</ele>
        <time>2010-12-18T17:16:52Z</time>
      </trkpt>
      <trkpt lat="42.91692" lon="0.12246">
        <ele>2124</ele>
        <time>2010-12-18T17:16:55Z</time>
      </trkpt>
      <trkpt lat="42.91687" lon="0.12241">
        <ele>2121</ele>
        <time>2010-12-18T17:16:57Z</time>
      </trkpt>
      <trkpt lat="42.91686" lon="0.12243">
        <ele>2120</ele>
        <time>2010-12-18T17:16:59Z</time>
      </trkpt>
      <trkpt lat="42.91686" lon="0.12244">
        <ele>2120</ele>
        <time>2010-12-18T17:17:19Z</time>
      </trkpt>
      <trkpt lat="42.91679" lon="0.12248">
        <ele>2117</ele>
        <time>2010-12-18T17:17:24Z</time>
      </trkpt>
      <trkpt lat="42.91671" lon="0.12255">
        <ele>2116</ele>
        <time>2010-12-18T17:17:28Z</time>
      </trkpt>
      <trkpt lat="42.91662" lon="0.12262">
        <ele>2115</ele>
        <time>2010-12-18T17:17:31Z</time>
      </trkpt>
      <trkpt lat="42.91657" lon="0.12269">
        <ele>2114</ele>
        <time>2010-12-18T17:17:41Z</time>
      </trkpt>
      <trkpt lat="42.91647" lon="0.12278">
        <ele>2110</ele>
        <time>2010-12-18T17:18:01Z</time>
      </trkpt>
      <trkpt lat="42.91639" lon="0.12278">
        <ele>2107</ele>
        <time>2010-12-18T17:18:03Z</time>
      </trkpt>
      <trkpt lat="42.91622" lon="0.12289">
        <ele>2102</ele>
        <time>2010-12-18T17:18:07Z</time>
      </trkpt>
      <trkpt lat="42.91618" lon="0.12292">
        <ele>2102</ele>
        <time>2010-12-18T17:18:08Z</time>
      </trkpt>
      <trkpt lat="42.91613" lon="0.12286">
        <ele>2097</ele>
        <time>2010-12-18T17:24:38Z</time>
      </trkpt>
      <trkpt lat="42.91613" lon="0.12274">
        <ele>2093</ele>
        <time>2010-12-18T17:24:42Z</time>
      </trkpt>
      <trkpt lat="42.91615" lon="0.12269">
        <ele>2090</ele>
        <time>2010-12-18T17:24:44Z</time>
      </trkpt>
      <trkpt lat="42.91616" lon="0.12268">
        <ele>2090</ele>
        <time>2010-12-18T17:24:45Z</time>
      </trkpt>
      <trkpt lat="42.91617" lon="0.12269">
        <ele>2089</ele>
        <time>2010-12-18T17:24:52Z</time>
      </trkpt>
      <trkpt lat="42.91621" lon="0.12254">
        <ele>2087</ele>
        <time>2010-12-18T17:24:58Z</time>
      </trkpt>
      <trkpt lat="42.91627" lon="0.1225">
        <ele>2085</ele>
        <time>2010-12-18T17:25:08Z</time>
      </trkpt>
      <trkpt lat="42.91627" lon="0.1225">
        <ele>2085</ele>
        <time>2010-12-18T17:25:09Z</time>
      </trkpt>
      <trkpt lat="42.91627" lon="0.12242">
        <ele>2080</ele>
        <time>2010-12-18T17:25:14Z</time>
      </trkpt>
      <trkpt lat="42.91628" lon="0.12238">
        <ele>2079</ele>
        <time>2010-12-18T17:25:27Z</time>
      </trkpt>
      <trkpt lat="42.91629" lon="0.12236">
        <ele>2079</ele>
        <time>2010-12-18T17:25:28Z</time>
      </trkpt>
      <trkpt lat="42.9164" lon="0.12219">
        <ele>2077</ele>
        <time>2010-12-18T17:25:43Z</time>
      </trkpt>
      <trkpt lat="42.91651" lon="0.12203">
        <ele>2074</ele>
        <time>2010-12-18T17:25:52Z</time>
      </trkpt>
      <trkpt lat="42.91651" lon="0.12204">
        <ele>2074</ele>
        <time>2010-12-18T17:25:53Z</time>
      </trkpt>
      <trkpt lat="42.91655" lon="0.12198">
        <ele>2074</ele>
        <time>2010-12-18T17:26:05Z</time>
      </trkpt>
      <trkpt lat="42.91661" lon="0.12171">
        <ele>2071</ele>
        <time>2010-12-18T17:26:18Z</time>
      </trkpt>
      <trkpt lat="42.91664" lon="0.12166">
        <ele>2071</ele>
        <time>2010-12-18T17:26:30Z</time>
      </trkpt>
      <trkpt lat="42.91664" lon="0.12166">
        <ele>2070</ele>
        <time>2010-12-18T17:27:52Z</time>
      </trkpt>
      <trkpt lat="42.91663" lon="0.12167">
        <ele>2071</ele>
        <time>2010-12-18T17:29:14Z</time>
      </trkpt>
      <trkpt lat="42.91663" lon="0.12167">
        <ele>2071</ele>
        <time>2010-12-18T17:30:07Z</time>
      </trkpt>
      <trkpt lat="42.91662" lon="0.12167">
        <ele>2071</ele>
        <time>2010-12-18T17:30:25Z</time>
      </trkpt>
      <trkpt lat="42.91662" lon="0.12161">
        <ele>2068</ele>
        <time>2010-12-18T17:30:30Z</time>
      </trkpt>
      <trkpt lat="42.91663" lon="0.12155">
        <ele>2067</ele>
        <time>2010-12-18T17:30:33Z</time>
      </trkpt>
      <trkpt lat="42.91669" lon="0.12147">
        <ele>2065</ele>
        <time>2010-12-18T17:30:45Z</time>
      </trkpt>
      <trkpt lat="42.91668" lon="0.12147">
        <ele>2065</ele>
        <time>2010-12-18T17:30:50Z</time>
      </trkpt>
      <trkpt lat="42.91663" lon="0.12141">
        <ele>2061</ele>
        <time>2010-12-18T17:30:55Z</time>
      </trkpt>
      <trkpt lat="42.91665" lon="0.12136">
        <ele>2058</ele>
        <time>2010-12-18T17:30:58Z</time>
      </trkpt>
      <trkpt lat="42.91665" lon="0.12136">
        <ele>2058</ele>
        <time>2010-12-18T17:31:24Z</time>
      </trkpt>
      <trkpt lat="42.9167" lon="0.12126">
        <ele>2055</ele>
        <time>2010-12-18T17:31:30Z</time>
      </trkpt>
      <trkpt lat="42.9167" lon="0.12126">
        <ele>2055</ele>
        <time>2010-12-18T17:31:34Z</time>
      </trkpt>
      <trkpt lat="42.91673" lon="0.12115">
        <ele>2053</ele>
        <time>2010-12-18T17:31:40Z</time>
      </trkpt>
      <trkpt lat="42.91673" lon="0.12115">
        <ele>2051</ele>
        <time>2010-12-18T17:31:52Z</time>
      </trkpt>
      <trkpt lat="42.91673" lon="0.12114">
        <ele>2050</ele>
        <time>2010-12-18T17:32:08Z</time>
      </trkpt>
      <trkpt lat="42.91671" lon="0.12117">
        <ele>2050</ele>
        <time>2010-12-18T17:32:49Z</time>
      </trkpt>
      <trkpt lat="42.91675" lon="0.12114">
        <ele>2049</ele>
        <time>2010-12-18T17:33:40Z</time>
      </trkpt>
      <trkpt lat="42.91679" lon="0.12106">
        <ele>2047</ele>
        <time>2010-12-18T17:33:55Z</time>
      </trkpt>
      <trkpt lat="42.9168" lon="0.12103">
        <ele>2046</ele>
        <time>2010-12-18T17:34:09Z</time>
      </trkpt>
      <trkpt lat="42.91681" lon="0.12099">
        <ele>2045</ele>
        <time>2010-12-18T17:34:13Z</time>
      </trkpt>
      <trkpt lat="42.91681" lon="0.12099">
        <ele>2045</ele>
        <time>2010-12-18T17:35:10Z</time>
      </trkpt>
      <trkpt lat="42.91682" lon="0.12098">
        <ele>2045</ele>
        <time>2010-12-18T17:37:36Z</time>
      </trkpt>
      <trkpt lat="42.91682" lon="0.12089">
        <ele>2042</ele>
        <time>2010-12-18T17:37:40Z</time>
      </trkpt>
      <trkpt lat="42.91681" lon="0.12089">
        <ele>2042</ele>
        <time>2010-12-18T17:37:45Z</time>
      </trkpt>
      <trkpt lat="42.91682" lon="0.12081">
        <ele>2038</ele>
        <time>2010-12-18T17:37:49Z</time>
      </trkpt>
      <trkpt lat="42.91682" lon="0.1208">
        <ele>2038</ele>
        <time>2010-12-18T17:37:50Z</time>
      </trkpt>
      <trkpt lat="42.91683" lon="0.12081">
        <ele>2037</ele>
        <time>2010-12-18T17:38:18Z</time>
      </trkpt>
      <trkpt lat="42.91684" lon="0.12078">
        <ele>2036</ele>
        <time>2010-12-18T17:38:33Z</time>
      </trkpt>
      <trkpt lat="42.91687" lon="0.12072">
        <ele>2033</ele>
        <time>2010-12-18T17:38:48Z</time>
      </trkpt>
      <trkpt lat="42.91687" lon="0.12074">
        <ele>2034</ele>
        <time>2010-12-18T17:39:05Z</time>
      </trkpt>
      <trkpt lat="42.91688" lon="0.12068">
        <ele>2030</ele>
        <time>2010-12-18T17:39:09Z</time>
      </trkpt>
      <trkpt lat="42.91688" lon="0.12069">
        <ele>2030</ele>
        <time>2010-12-18T17:39:11Z</time>
      </trkpt>
      <trkpt lat="42.91693" lon="0.12061">
        <ele>2028</ele>
        <time>2010-12-18T17:39:15Z</time>
      </trkpt>
      <trkpt lat="42.91697" lon="0.12049">
        <ele>2025</ele>
        <time>2010-12-18T17:39:18Z</time>
      </trkpt>
      <trkpt lat="42.917" lon="0.12041">
        <ele>2021</ele>
        <time>2010-12-18T17:39:20Z</time>
      </trkpt>
      <trkpt lat="42.91701" lon="0.12038">
        <ele>2020</ele>
        <time>2010-12-18T17:39:22Z</time>
      </trkpt>
      <trkpt lat="42.917" lon="0.12038">
        <ele>2021</ele>
        <time>2010-12-18T17:40:38Z</time>
      </trkpt>
      <trkpt lat="42.91697" lon="0.12034">
        <ele>2020</ele>
        <time>2010-12-18T17:40:40Z</time>
      </trkpt>
      <trkpt lat="42.91687" lon="0.12034">
        <ele>2016</ele>
        <time>2010-12-18T17:40:46Z</time>
      </trkpt>
      <trkpt lat="42.91683" lon="0.1203">
        <ele>2013</ele>
        <time>2010-12-18T17:40:48Z</time>
      </trkpt>
      <trkpt lat="42.91675" lon="0.12029">
        <ele>2010</ele>
        <time>2010-12-18T17:40:51Z</time>
      </trkpt>
      <trkpt lat="42.9167" lon="0.12026">
        <ele>2006</ele>
        <time>2010-12-18T17:40:53Z</time>
      </trkpt>
      <trkpt lat="42.91661" lon="0.12013">
        <ele>2000</ele>
        <time>2010-12-18T17:40:56Z</time>
      </trkpt>
      <trkpt lat="42.91654" lon="0.12004">
        <ele>1993</ele>
        <time>2010-12-18T17:40:58Z</time>
      </trkpt>
      <trkpt lat="42.91652" lon="0.12">
        <ele>1989</ele>
        <time>2010-12-18T17:41:01Z</time>
      </trkpt>
      <trkpt lat="42.91654" lon="0.12">
        <ele>1989</ele>
        <time>2010-12-18T17:41:19Z</time>
      </trkpt>
      <trkpt lat="42.91655" lon="0.11996">
        <ele>1988</ele>
        <time>2010-12-18T17:41:22Z</time>
      </trkpt>
      <trkpt lat="42.91663" lon="0.11986">
        <ele>1985</ele>
        <time>2010-12-18T17:41:27Z</time>
      </trkpt>
      <trkpt lat="42.91663" lon="0.11985">
        <ele>1985</ele>
        <time>2010-12-18T17:41:28Z</time>
      </trkpt>
      <trkpt lat="42.91654" lon="0.11979">
        <ele>1980</ele>
        <time>2010-12-18T17:41:33Z</time>
      </trkpt>
      <trkpt lat="42.91647" lon="0.11972">
        <ele>1975</ele>
        <time>2010-12-18T17:41:35Z</time>
      </trkpt>
      <trkpt lat="42.91641" lon="0.11961">
        <ele>1972</ele>
        <time>2010-12-18T17:41:37Z</time>
      </trkpt>
      <trkpt lat="42.91634" lon="0.11944">
        <ele>1964</ele>
        <time>2010-12-18T17:41:40Z</time>
      </trkpt>
      <trkpt lat="42.91624" lon="0.1194">
        <ele>1960</ele>
        <time>2010-12-18T17:41:42Z</time>
      </trkpt>
      <trkpt lat="42.91621" lon="0.11933">
        <ele>1957</ele>
        <time>2010-12-18T17:41:43Z</time>
      </trkpt>
      <trkpt lat="42.91618" lon="0.11931">
        <ele>1954</ele>
        <time>2010-12-18T17:41:44Z</time>
      </trkpt>
      <trkpt lat="42.91614" lon="0.11933">
        <ele>1952</ele>
        <time>2010-12-18T17:41:52Z</time>
      </trkpt>
      <trkpt lat="42.91613" lon="0.11933">
        <ele>1952</ele>
        <time>2010-12-18T17:42:27Z</time>
      </trkpt>
      <trkpt lat="42.91603" lon="0.11924">
        <ele>1948</ele>
        <time>2010-12-18T17:42:31Z</time>
      </trkpt>
      <trkpt lat="42.91591" lon="0.11913">
        <ele>1942</ele>
        <time>2010-12-18T17:42:34Z</time>
      </trkpt>
      <trkpt lat="42.91582" lon="0.11909">
        <ele>1937</ele>
        <time>2010-12-18T17:42:36Z</time>
      </trkpt>
      <trkpt lat="42.91576" lon="0.11903">
        <ele>1933</ele>
        <time>2010-12-18T17:42:38Z</time>
      </trkpt>
      <trkpt lat="42.91574" lon="0.11901">
        <ele>1932</ele>
        <time>2010-12-18T17:42:40Z</time>
      </trkpt>
      <trkpt lat="42.91573" lon="0.11901">
        <ele>1932</ele>
        <time>2010-12-18T17:42:46Z</time>
      </trkpt>
      <trkpt lat="42.91566" lon="0.11904">
        <ele>1930</ele>
        <time>2010-12-18T17:42:50Z</time>
      </trkpt>
      <trkpt lat="42.9156" lon="0.11904">
        <ele>1929</ele>
        <time>2010-12-18T17:42:52Z</time>
      </trkpt>
      <trkpt lat="42.91552" lon="0.11902">
        <ele>1925</ele>
        <time>2010-12-18T17:42:54Z</time>
      </trkpt>
      <trkpt lat="42.91547" lon="0.11901">
        <ele>1924</ele>
        <time>2010-12-18T17:42:55Z</time>
      </trkpt>
      <trkpt lat="42.91532" lon="0.11897">
        <ele>1918</ele>
        <time>2010-12-18T17:42:58Z</time>
      </trkpt>
      <trkpt lat="42.91524" lon="0.11895">
        <ele>1915</ele>
        <time>2010-12-18T17:43:00Z</time>
      </trkpt>
      <trkpt lat="42.91521" lon="0.11898">
        <ele>1915</ele>
        <time>2010-12-18T17:43:01Z</time>
      </trkpt>
      <trkpt lat="42.91516" lon="0.11905">
        <ele>1913</ele>
        <time>2010-12-18T17:43:04Z</time>
      </trkpt>
      <trkpt lat="42.91509" lon="0.11903">
        <ele>1911</ele>
        <time>2010-12-18T17:43:06Z</time>
      </trkpt>
      <trkpt lat="42.91494" lon="0.11901">
        <ele>1906</ele>
        <time>2010-12-18T17:43:09Z</time>
      </trkpt>
      <trkpt lat="42.91489" lon="0.119">
        <ele>1905</ele>
        <time>2010-12-18T17:43:10Z</time>
      </trkpt>
      <trkpt lat="42.91472" lon="0.11893">
        <ele>1899</ele>
        <time>2010-12-18T17:43:14Z</time>
      </trkpt>
      <trkpt lat="42.91458" lon="0.11889">
        <ele>1894</ele>
        <time>2010-12-18T17:43:17Z</time>
      </trkpt>
      <trkpt lat="42.91455" lon="0.11888">
        <ele>1892</ele>
        <time>2010-12-18T17:43:20Z</time>
      </trkpt>
      <trkpt lat="42.91455" lon="0.11889">
        <ele>1892</ele>
        <time>2010-12-18T17:43:35Z</time>
      </trkpt>
      <trkpt lat="42.91445" lon="0.11916">
        <ele>1888</ele>
        <time>2010-12-18T17:43:42Z</time>
      </trkpt>
      <trkpt lat="42.91441" lon="0.11928">
        <ele>1887</ele>
        <time>2010-12-18T17:43:44Z</time>
      </trkpt>
      <trkpt lat="42.91424" lon="0.11963">
        <ele>1882</ele>
        <time>2010-12-18T17:43:49Z</time>
      </trkpt>
      <trkpt lat="42.91408" lon="0.1199">
        <ele>1878</ele>
        <time>2010-12-18T17:43:53Z</time>
      </trkpt>
      <trkpt lat="42.91406" lon="0.11997">
        <ele>1877</ele>
        <time>2010-12-18T17:43:55Z</time>
      </trkpt>
      <trkpt lat="42.91406" lon="0.12">
        <ele>1876</ele>
        <time>2010-12-18T17:45:13Z</time>
      </trkpt>
      <trkpt lat="42.91404" lon="0.12002">
        <ele>1876</ele>
        <time>2010-12-18T17:45:16Z</time>
      </trkpt>
      <trkpt lat="42.91397" lon="0.11996">
        <ele>1873</ele>
        <time>2010-12-18T17:45:20Z</time>
      </trkpt>
      <trkpt lat="42.91392" lon="0.11996">
        <ele>1870</ele>
        <time>2010-12-18T17:45:21Z</time>
      </trkpt>
      <trkpt lat="42.91379" lon="0.1199">
        <ele>1864</ele>
        <time>2010-12-18T17:45:24Z</time>
      </trkpt>
      <trkpt lat="42.9137" lon="0.11989">
        <ele>1858</ele>
        <time>2010-12-18T17:45:26Z</time>
      </trkpt>
      <trkpt lat="42.91358" lon="0.11983">
        <ele>1855</ele>
        <time>2010-12-18T17:45:28Z</time>
      </trkpt>
      <trkpt lat="42.91355" lon="0.11981">
        <ele>1851</ele>
        <time>2010-12-18T17:45:29Z</time>
      </trkpt>
      <trkpt lat="42.91348" lon="0.11985">
        <ele>1847</ele>
        <time>2010-12-18T17:45:32Z</time>
      </trkpt>
      <trkpt lat="42.91348" lon="0.11985">
        <ele>1846</ele>
        <time>2010-12-18T17:45:34Z</time>
      </trkpt>
      <trkpt lat="42.91348" lon="0.11992">
        <ele>1846</ele>
        <time>2010-12-18T17:45:47Z</time>
      </trkpt>
      <trkpt lat="42.91348" lon="0.11995">
        <ele>1846</ele>
        <time>2010-12-18T17:45:49Z</time>
      </trkpt>
      <trkpt lat="42.91347" lon="0.12003">
        <ele>1845</ele>
        <time>2010-12-18T17:45:54Z</time>
      </trkpt>
      <trkpt lat="42.91339" lon="0.12011">
        <ele>1844</ele>
        <time>2010-12-18T17:46:05Z</time>
      </trkpt>
      <trkpt lat="42.91338" lon="0.12013">
        <ele>1844</ele>
        <time>2010-12-18T17:46:20Z</time>
      </trkpt>
      <trkpt lat="42.91333" lon="0.12024">
        <ele>1843</ele>
        <time>2010-12-18T17:46:25Z</time>
      </trkpt>
      <trkpt lat="42.91318" lon="0.12025">
        <ele>1838</ele>
        <time>2010-12-18T17:46:29Z</time>
      </trkpt>
      <trkpt lat="42.91298" lon="0.12015">
        <ele>1830</ele>
        <time>2010-12-18T17:46:33Z</time>
      </trkpt>
      <trkpt lat="42.91287" lon="0.12012">
        <ele>1824</ele>
        <time>2010-12-18T17:46:35Z</time>
      </trkpt>
      <trkpt lat="42.91275" lon="0.12009">
        <ele>1820</ele>
        <time>2010-12-18T17:46:37Z</time>
      </trkpt>
      <trkpt lat="42.91269" lon="0.12008">
        <ele>1818</ele>
        <time>2010-12-18T17:46:38Z</time>
      </trkpt>
      <trkpt lat="42.91251" lon="0.12014">
        <ele>1810</ele>
        <time>2010-12-18T17:46:42Z</time>
      </trkpt>
      <trkpt lat="42.91253" lon="0.12017">
        <ele>1810</ele>
        <time>2010-12-18T17:46:53Z</time>
      </trkpt>
      <trkpt lat="42.91252" lon="0.12017">
        <ele>1811</ele>
        <time>2010-12-18T17:47:15Z</time>
      </trkpt>
      <trkpt lat="42.91244" lon="0.12025">
        <ele>1808</ele>
        <time>2010-12-18T17:47:23Z</time>
      </trkpt>
      <trkpt lat="42.91244" lon="0.12022">
        <ele>1808</ele>
        <time>2010-12-18T17:47:36Z</time>
      </trkpt>
      <trkpt lat="42.91236" lon="0.12022">
        <ele>1806</ele>
        <time>2010-12-18T17:47:41Z</time>
      </trkpt>
      <trkpt lat="42.91236" lon="0.12023">
        <ele>1806</ele>
        <time>2010-12-18T17:47:57Z</time>
      </trkpt>
      <trkpt lat="42.91237" lon="0.12028">
        <ele>1805</ele>
        <time>2010-12-18T17:48:10Z</time>
      </trkpt>
      <trkpt lat="42.91234" lon="0.12031">
        <ele>1806</ele>
        <time>2010-12-18T17:48:28Z</time>
      </trkpt>
      <trkpt lat="42.91232" lon="0.12033">
        <ele>1806</ele>
        <time>2010-12-18T17:49:09Z</time>
      </trkpt>
      <trkpt lat="42.91223" lon="0.12055">
        <ele>1804</ele>
        <time>2010-12-18T17:49:21Z</time>
      </trkpt>
      <trkpt lat="42.91221" lon="0.12062">
        <ele>1804</ele>
        <time>2010-12-18T17:49:56Z</time>
      </trkpt>
      <trkpt lat="42.91219" lon="0.12063">
        <ele>1804</ele>
        <time>2010-12-18T17:50:00Z</time>
      </trkpt>
      <trkpt lat="42.91195" lon="0.12071">
        <ele>1800</ele>
        <time>2010-12-18T17:50:09Z</time>
      </trkpt>
      <trkpt lat="42.91192" lon="0.12072">
        <ele>1801</ele>
        <time>2010-12-18T17:50:19Z</time>
      </trkpt>
      <trkpt lat="42.91194" lon="0.12078">
        <ele>1801</ele>
        <time>2010-12-18T17:50:33Z</time>
      </trkpt>
      <trkpt lat="42.91192" lon="0.12086">
        <ele>1803</ele>
        <time>2010-12-18T17:50:50Z</time>
      </trkpt>
      <trkpt lat="42.91184" lon="0.12088">
        <ele>1804</ele>
        <time>2010-12-18T17:51:07Z</time>
      </trkpt>
      <trkpt lat="42.91181" lon="0.12091">
        <ele>1805</ele>
        <time>2010-12-18T17:51:32Z</time>
      </trkpt>
      <trkpt lat="42.91179" lon="0.12091">
        <ele>1805</ele>
        <time>2010-12-18T17:52:02Z</time>
      </trkpt>
      <trkpt lat="42.91179" lon="0.12093">
        <ele>1805</ele>
        <time>2010-12-18T17:52:16Z</time>
      </trkpt>
      <trkpt lat="42.91158" lon="0.12095">
        <ele>1802</ele>
        <time>2010-12-18T17:52:37Z</time>
      </trkpt>
      <trkpt lat="42.91154" lon="0.12095">
        <ele>1801</ele>
        <time>2010-12-18T17:52:39Z</time>
      </trkpt>
      <trkpt lat="42.91144" lon="0.12092">
        <ele>1801</ele>
        <time>2010-12-18T17:52:52Z</time>
      </trkpt>
      <trkpt lat="42.91138" lon="0.12089">
        <ele>1800</ele>
        <time>2010-12-18T17:53:37Z</time>
      </trkpt>
      <trkpt lat="42.91126" lon="0.12084">
        <ele>1799</ele>
        <time>2010-12-18T17:53:48Z</time>
      </trkpt>
      <trkpt lat="42.91107" lon="0.12072">
        <ele>1796</ele>
        <time>2010-12-18T17:54:04Z</time>
      </trkpt>
      <trkpt lat="42.91078" lon="0.12057">
        <ele>1793</ele>
        <time>2010-12-18T17:54:16Z</time>
      </trkpt>
      <trkpt lat="42.91075" lon="0.12056">
        <ele>1792</ele>
        <time>2010-12-18T17:54:17Z</time>
      </trkpt>
      <trkpt lat="42.91056" lon="0.12034">
        <ele>1788</ele>
        <time>2010-12-18T17:54:27Z</time>
      </trkpt>
      <trkpt lat="42.91053" lon="0.12031">
        <ele>1788</ele>
        <time>2010-12-18T17:54:28Z</time>
      </trkpt>
      <trkpt lat="42.9104" lon="0.12015">
        <ele>1785</ele>
        <time>2010-12-18T17:54:32Z</time>
      </trkpt>
      <trkpt lat="42.9102" lon="0.11993">
        <ele>1782</ele>
        <time>2010-12-18T17:54:40Z</time>
      </trkpt>
      <trkpt lat="42.91006" lon="0.11985">
        <ele>1780</ele>
        <time>2010-12-18T17:54:44Z</time>
      </trkpt>
      <trkpt lat="42.90988" lon="0.11975">
        <ele>1778</ele>
        <time>2010-12-18T17:54:52Z</time>
      </trkpt>
      <trkpt lat="42.90973" lon="0.1197">
        <ele>1772</ele>
        <time>2010-12-18T17:54:55Z</time>
      </trkpt>
      <trkpt lat="42.90964" lon="0.11961">
        <ele>1770</ele>
        <time>2010-12-18T17:54:57Z</time>
      </trkpt>
      <trkpt lat="42.90954" lon="0.11944">
        <ele>1764</ele>
        <time>2010-12-18T17:55:00Z</time>
      </trkpt>
      <trkpt lat="42.90951" lon="0.11937">
        <ele>1763</ele>
        <time>2010-12-18T17:55:01Z</time>
      </trkpt>
      <trkpt lat="42.90937" lon="0.11914">
        <ele>1756</ele>
        <time>2010-12-18T17:55:05Z</time>
      </trkpt>
      <trkpt lat="42.90938" lon="0.1191">
        <ele>1755</ele>
        <time>2010-12-18T17:55:07Z</time>
      </trkpt>
      <trkpt lat="42.90941" lon="0.11904">
        <ele>1755</ele>
        <time>2010-12-18T17:55:24Z</time>
      </trkpt>
      <trkpt lat="42.90938" lon="0.11893">
        <ele>1751</ele>
        <time>2010-12-18T17:55:28Z</time>
      </trkpt>
      <trkpt lat="42.90938" lon="0.11882">
        <ele>1749</ele>
        <time>2010-12-18T17:55:30Z</time>
      </trkpt>
      <trkpt lat="42.90932" lon="0.11863">
        <ele>1744</ele>
        <time>2010-12-18T17:55:33Z</time>
      </trkpt>
      <trkpt lat="42.90927" lon="0.11849">
        <ele>1741</ele>
        <time>2010-12-18T17:55:35Z</time>
      </trkpt>
      <trkpt lat="42.90915" lon="0.11841">
        <ele>1738</ele>
        <time>2010-12-18T17:55:38Z</time>
      </trkpt>
      <trkpt lat="42.9091" lon="0.11825">
        <ele>1733</ele>
        <time>2010-12-18T17:55:42Z</time>
      </trkpt>
      <trkpt lat="42.90904" lon="0.11812">
        <ele>1730</ele>
        <time>2010-12-18T17:55:45Z</time>
      </trkpt>
      <trkpt lat="42.90907" lon="0.11802">
        <ele>1727</ele>
        <time>2010-12-18T17:55:48Z</time>
      </trkpt>
      <trkpt lat="42.90906" lon="0.11801">
        <ele>1726</ele>
        <time>2010-12-18T17:55:54Z</time>
      </trkpt>
      <trkpt lat="42.90897" lon="0.11795">
        <ele>1723</ele>
        <time>2010-12-18T17:55:59Z</time>
      </trkpt>
      <trkpt lat="42.90888" lon="0.11796">
        <ele>1722</ele>
        <time>2010-12-18T17:56:02Z</time>
      </trkpt>
      <trkpt lat="42.90888" lon="0.11792">
        <ele>1721</ele>
        <time>2010-12-18T17:56:14Z</time>
      </trkpt>
      <trkpt lat="42.90889" lon="0.1179">
        <ele>1720</ele>
        <time>2010-12-18T17:56:19Z</time>
      </trkpt>
      <trkpt lat="42.90892" lon="0.11779">
        <ele>1719</ele>
        <time>2010-12-18T17:56:23Z</time>
      </trkpt>
      <trkpt lat="42.90882" lon="0.11761">
        <ele>1714</ele>
        <time>2010-12-18T17:56:28Z</time>
      </trkpt>
      <trkpt lat="42.90875" lon="0.11764">
        <ele>1713</ele>
        <time>2010-12-18T17:56:31Z</time>
      </trkpt>
      <trkpt lat="42.90874" lon="0.11765">
        <ele>1712</ele>
        <time>2010-12-18T17:56:42Z</time>
      </trkpt>
      <trkpt lat="42.90874" lon="0.11738">
        <ele>1709</ele>
        <time>2010-12-18T17:56:55Z</time>
      </trkpt>
      <trkpt lat="42.90878" lon="0.11726">
        <ele>1707</ele>
        <time>2010-12-18T17:57:00Z</time>
      </trkpt>
      <trkpt lat="42.90881" lon="0.11722">
        <ele>1706</ele>
        <time>2010-12-18T17:57:07Z</time>
      </trkpt>
      <trkpt lat="42.90869" lon="0.11715">
        <ele>1702</ele>
        <time>2010-12-18T17:57:14Z</time>
      </trkpt>
      <trkpt lat="42.90868" lon="0.11716">
        <ele>1702</ele>
        <time>2010-12-18T17:57:15Z</time>
      </trkpt>
      <trkpt lat="42.90867" lon="0.11716">
        <ele>1701</ele>
        <time>2010-12-18T17:57:30Z</time>
      </trkpt>
      <trkpt lat="42.90866" lon="0.11716">
        <ele>1701</ele>
        <time>2010-12-18T17:57:35Z</time>
      </trkpt>
      <trkpt lat="42.90862" lon="0.11722">
        <ele>1699</ele>
        <time>2010-12-18T17:57:50Z</time>
      </trkpt>
      <trkpt lat="42.90862" lon="0.11721">
        <ele>1698</ele>
        <time>2010-12-18T17:58:05Z</time>
      </trkpt>
      <trkpt lat="42.90858" lon="0.11726">
        <ele>1697</ele>
        <time>2010-12-18T17:58:14Z</time>
      </trkpt>
      <trkpt lat="42.90857" lon="0.11729">
        <ele>1696</ele>
        <time>2010-12-18T17:58:16Z</time>
      </trkpt>
      <trkpt lat="42.90857" lon="0.11729">
        <ele>1695</ele>
        <time>2010-12-18T17:58:20Z</time>
      </trkpt>
      <trkpt lat="42.90854" lon="0.11732">
        <ele>1694</ele>
        <time>2010-12-18T17:58:35Z</time>
      </trkpt>
      <trkpt lat="42.90848" lon="0.11739">
        <ele>1691</ele>
        <time>2010-12-18T17:58:40Z</time>
      </trkpt>
      <trkpt lat="42.90846" lon="0.1174">
        <ele>1691</ele>
        <time>2010-12-18T17:58:41Z</time>
      </trkpt>
      <trkpt lat="42.90841" lon="0.11747">
        <ele>1690</ele>
        <time>2010-12-18T17:58:52Z</time>
      </trkpt>
      <trkpt lat="42.90841" lon="0.11747">
        <ele>1689</ele>
        <time>2010-12-18T17:59:25Z</time>
      </trkpt>
      <trkpt lat="42.90834" lon="0.11754">
        <ele>1687</ele>
        <time>2010-12-18T17:59:29Z</time>
      </trkpt>
      <trkpt lat="42.90827" lon="0.11755">
        <ele>1685</ele>
        <time>2010-12-18T17:59:33Z</time>
      </trkpt>
      <trkpt lat="42.90815" lon="0.11748">
        <ele>1678</ele>
        <time>2010-12-18T17:59:37Z</time>
      </trkpt>
      <trkpt lat="42.90814" lon="0.11745">
        <ele>1678</ele>
        <time>2010-12-18T17:59:38Z</time>
      </trkpt>
      <trkpt lat="42.90814" lon="0.11739">
        <ele>1677</ele>
        <time>2010-12-18T17:59:40Z</time>
      </trkpt>
      <trkpt lat="42.9081" lon="0.11736">
        <ele>1674</ele>
        <time>2010-12-18T17:59:44Z</time>
      </trkpt>
      <trkpt lat="42.90809" lon="0.11736">
        <ele>1674</ele>
        <time>2010-12-18T17:59:45Z</time>
      </trkpt>
      <trkpt lat="42.90802" lon="0.11729">
        <ele>1669</ele>
        <time>2010-12-18T17:59:50Z</time>
      </trkpt>
      <trkpt lat="42.90793" lon="0.11719">
        <ele>1665</ele>
        <time>2010-12-18T17:59:53Z</time>
      </trkpt>
      <trkpt lat="42.9079" lon="0.11719">
        <ele>1662</ele>
        <time>2010-12-18T17:59:55Z</time>
      </trkpt>
      <trkpt lat="42.90779" lon="0.11714">
        <ele>1658</ele>
        <time>2010-12-18T17:59:58Z</time>
      </trkpt>
      <trkpt lat="42.90768" lon="0.11704">
        <ele>1654</ele>
        <time>2010-12-18T18:00:03Z</time>
      </trkpt>
      <trkpt lat="42.90763" lon="0.11698">
        <ele>1650</ele>
        <time>2010-12-18T18:00:09Z</time>
      </trkpt>
      <trkpt lat="42.90761" lon="0.11694">
        <ele>1649</ele>
        <time>2010-12-18T18:00:11Z</time>
      </trkpt>
      <trkpt lat="42.90763" lon="0.11689">
        <ele>1648</ele>
        <time>2010-12-18T18:00:21Z</time>
      </trkpt>
    </trkseg>
  </trk>
</gpx>